temp heatIndex dewpt windChill windSpeed windGust pressure precipRate precipTotal solarRadiation uv winddir humidity
date
2024-06-14 12:54:56 27.6 28.3 17.2 27.6 3.6 4.1 1018.3 0.0 0.0 494.1 4.0 94.0 53.0
2024-06-14 12:59:56 27.7 28.6 17.9 27.7 3.7 4.1 1018.2 0.0 0.0 498.4 4.0 100.0 55.0
2024-06-14 13:04:55 27.5 28.4 18.0 27.5 3.6 4.6 1018.2 0.0 0.0 489.7 4.0 94.0 56.0
2024-06-14 13:09:55 27.7 28.8 18.4 27.7 3.7 4.1 1018.0 0.0 0.0 470.6 4.0 94.0 57.0
2024-06-14 13:14:55 27.8 28.6 17.7 27.8 4.5 4.6 1018.0 0.0 0.0 478.8 4.0 93.0 54.0
2024-06-14 13:19:55 27.8 28.6 18.0 27.8 3.8 4.1 1018.1 0.0 0.0 448.5 4.0 105.0 55.0
2024-06-14 13:24:54 27.5 28.5 18.3 27.5 3.9 4.1 1018.0 0.0 0.0 446.3 4.0 89.0 57.0
2024-06-14 13:29:54 27.7 28.8 18.4 27.7 4.1 4.6 1017.9 0.0 0.0 452.9 4.0 84.0 57.0
2024-06-14 13:34:54 27.6 28.6 18.3 27.6 4.4 4.6 1017.9 0.0 0.0 446.8 4.0 89.0 57.0
2024-06-14 13:39:54 27.8 28.7 18.2 27.8 4.1 5.1 1017.8 0.0 0.0 417.3 4.0 162.0 56.0
2024-06-14 13:44:58 27.8 28.8 18.5 27.8 3.3 4.1 1017.9 0.0 0.0 400.4 3.0 86.0 57.0
2024-06-14 13:49:58 27.6 28.5 18.1 27.6 4.5 5.1 1017.8 0.0 0.0 392.1 3.0 97.0 56.0
2024-06-14 13:54:57 27.7 28.7 18.2 27.7 3.6 4.6 1017.7 0.0 0.0 397.4 3.0 83.0 56.0
2024-06-14 13:59:57 27.6 29.0 19.4 27.6 3.5 4.1 1018.0 0.0 0.0 397.7 3.0 90.0 61.0
2024-06-14 14:04:57 27.7 28.9 18.7 27.7 3.8 4.1 1017.9 0.0 0.0 390.9 3.0 92.0 58.0
2024-06-14 14:08:57 27.9 29.1 18.9 27.9 3.6 4.6 1017.9 0.0 0.0 376.9 3.0 105.0 58.0
2024-06-14 14:15:00 27.9 29.2 19.2 27.9 3.3 4.1 1017.8 0.0 0.0 369.1 3.0 105.0 59.0
2024-06-14 14:19:32 27.8 29.3 19.9 27.8 3.3 3.6 1017.8 0.0 0.0 353.1 3.0 102.0 62.0
2024-06-14 14:24:32 27.7 29.3 19.8 27.7 2.4 3.6 1017.5 0.0 0.0 335.7 3.0 109.0 62.0
2024-06-14 14:29:32 27.9 29.2 19.2 27.9 2.6 3.1 1017.8 0.0 0.0 321.4 3.0 118.0 59.0
2024-06-14 14:34:31 28.0 29.3 19.3 28.0 1.8 3.1 1017.5 0.0 0.0 326.2 3.0 94.0 59.0
2024-06-14 14:39:59 28.5 29.7 18.9 28.5 2.2 3.1 1017.7 0.0 0.0 300.6 2.0 103.0 56.0
2024-06-14 14:44:31 28.7 29.9 18.8 28.7 2.2 3.1 1017.7 0.0 0.0 299.2 2.0 117.0 55.0
2024-06-14 14:49:31 29.1 29.9 18.0 29.1 1.7 3.1 1017.7 0.0 0.0 278.4 2.0 136.0 51.0
2024-06-14 14:54:31 29.5 30.6 18.7 29.5 0.4 1.5 1017.5 0.0 0.0 271.1 2.0 114.0 52.0
2024-06-14 14:59:59 29.5 30.8 18.9 29.5 0.8 2.0 1017.6 0.0 0.0 265.5 2.0 59.0 53.0
2024-06-14 15:04:30 29.5 30.8 18.9 29.5 0.4 2.0 1017.7 0.0 0.0 250.7 2.0 139.0 53.0
2024-06-14 15:09:58 29.2 30.2 18.4 29.2 1.6 2.0 1017.6 0.0 0.0 211.6 2.0 115.0 52.0
2024-06-14 15:14:58 29.2 30.4 18.7 29.2 1.3 1.5 1017.6 0.0 0.0 208.6 2.0 129.0 53.0
2024-06-14 15:19:30 28.9 30.0 18.7 28.9 2.2 2.6 1017.5 0.0 0.0 208.6 2.0 123.0 54.0
2024-06-14 15:24:33 28.9 30.0 18.7 28.9 1.1 2.6 1017.6 0.0 0.0 206.4 2.0 93.0 54.0
2024-06-14 15:29:33 28.8 29.9 18.6 28.8 1.6 2.6 1017.6 0.0 0.0 188.3 1.0 160.0 54.0
2024-06-14 15:34:33 28.6 29.6 18.4 28.6 0.8 2.6 1017.5 0.0 0.0 154.8 1.0 105.0 54.0
2024-06-14 15:39:33 28.9 30.0 18.7 28.9 0.6 1.5 1017.7 0.0 0.0 151.8 1.0 90.0 54.0
2024-06-14 15:44:32 29.1 30.2 18.6 29.1 0.0 1.0 1017.4 0.0 0.0 133.6 1.0 70.0 53.0
2024-06-14 15:49:32 29.0 30.0 18.5 29.0 1.3 1.5 1017.6 0.0 0.0 119.6 1.0 105.0 53.0
2024-06-14 15:54:32 28.9 30.1 19.0 28.9 0.6 2.6 1017.7 0.0 0.0 105.0 1.0 227.0 55.0
2024-06-14 15:59:32 28.8 30.0 18.9 28.8 1.4 1.5 1017.8 0.0 0.0 94.6 0.0 316.0 55.0
2024-06-14 16:05:00 28.8 29.7 18.3 28.8 1.0 1.0 1018.1 0.0 0.0 75.5 0.0 211.0 53.0
2024-06-14 16:09:36 28.8 29.9 18.6 28.8 1.2 1.5 1018.0 0.0 0.0 66.3 0.0 258.0 54.0
2024-06-14 16:14:35 28.5 29.6 18.6 28.5 1.7 2.6 1018.0 0.0 0.0 61.2 0.0 256.0 55.0
2024-06-14 16:19:35 28.3 29.4 18.7 28.3 2.2 2.6 1018.2 0.0 0.0 52.9 0.0 260.0 56.0
2024-06-14 16:24:35 28.1 29.2 18.5 28.1 1.3 2.6 1018.3 0.0 0.0 40.7 0.0 277.0 56.0
2024-06-14 16:29:35 27.9 29.0 18.6 27.9 1.6 2.6 1018.0 0.0 0.0 36.8 0.0 269.0 57.0
2024-06-14 16:34:34 28.0 29.1 18.7 28.0 0.6 1.5 1017.9 0.0 0.0 31.6 0.0 272.0 57.0
2024-06-14 16:39:34 27.9 29.0 18.6 27.9 1.7 2.6 1017.9 0.0 0.0 27.7 0.0 277.0 57.0
2024-06-14 16:44:34 27.8 28.9 18.8 27.8 1.9 2.0 1017.8 0.0 0.0 24.2 0.0 290.0 58.0
2024-06-14 16:49:34 27.6 28.8 18.9 27.6 1.2 2.0 1017.8 0.0 0.0 19.1 0.0 276.0 59.0
2024-06-14 16:54:33 27.5 28.6 18.8 27.5 1.1 3.1 1017.9 0.0 0.0 15.2 0.0 248.0 59.0
2024-06-14 16:59:33 27.4 28.6 19.0 27.4 1.5 2.6 1017.8 0.0 0.0 11.3 0.0 274.0 60.0
2024-06-14 17:04:37 27.2 28.4 18.8 27.2 1.5 2.0 1017.8 0.0 0.0 7.3 0.0 288.0 60.0
2024-06-14 17:09:37 27.1 28.3 19.0 27.1 1.5 2.0 1018.0 0.0 0.0 3.4 0.0 294.0 61.0
2024-06-14 17:14:53 26.9 28.0 18.8 26.9 1.7 2.0 1017.8 0.0 0.0 1.2 0.0 292.0 61.0
2024-06-14 17:19:41 26.9 28.0 18.8 26.9 1.3 2.6 1018.1 0.0 0.0 0.4 0.0 280.0 61.0
2024-06-14 17:24:40 26.9 28.0 18.8 26.9 2.2 2.6 1017.8 0.0 0.0 0.0 0.0 287.0 61.0
2024-06-14 17:29:40 26.8 27.9 18.9 26.8 1.5 2.6 1017.9 0.0 0.0 0.0 0.0 284.0 62.0
2024-06-14 17:34:40 26.7 27.9 18.8 26.7 1.7 2.0 1018.0 0.0 0.0 0.0 0.0 250.0 62.0
2024-06-14 17:39:40 26.8 27.9 18.7 26.8 1.5 2.0 1018.0 0.0 0.0 0.0 0.0 284.0 61.0
2024-06-14 17:44:39 26.9 28.0 18.8 26.9 0.0 0.5 1017.8 0.0 0.0 0.0 0.0 283.0 61.0
2024-06-14 17:49:39 26.9 27.9 18.5 26.9 1.2 1.5 1018.0 0.0 0.0 0.0 0.0 273.0 60.0
2024-06-14 17:54:39 26.9 28.0 18.8 26.9 0.7 1.5 1018.1 0.0 0.0 0.0 0.0 268.0 61.0
2024-06-14 17:59:39 26.9 28.0 18.8 26.9 1.2 2.0 1017.9 0.0 0.0 0.0 0.0 265.0 61.0
2024-06-14 18:04:38 26.9 28.0 18.8 26.9 0.9 1.5 1018.1 0.0 0.0 0.0 0.0 269.0 61.0
2024-06-14 18:09:38 26.9 27.9 18.5 26.9 1.4 2.0 1017.9 0.0 0.0 0.0 0.0 249.0 60.0
2024-06-14 18:14:38 26.9 27.9 18.5 26.9 1.0 1.5 1018.0 0.0 0.0 0.0 0.0 290.0 60.0
2024-06-14 18:19:38 26.9 28.0 18.8 26.9 1.0 1.5 1018.0 0.0 0.0 0.0 0.0 281.0 61.0
2024-06-14 18:24:38 26.7 27.8 18.6 26.7 0.9 1.0 1018.1 0.0 0.0 0.0 0.0 231.0 61.0
2024-06-14 18:29:38 26.6 27.7 18.5 26.6 1.2 1.5 1018.1 0.0 0.0 0.0 0.0 296.0 61.0
2024-06-14 18:34:37 26.5 27.6 18.6 26.5 0.9 1.0 1018.2 0.0 0.0 0.0 0.0 307.0 62.0
2024-06-14 18:39:37 26.5 27.6 18.6 26.5 1.0 1.5 1018.4 0.0 0.0 0.0 0.0 252.0 62.0
2024-06-14 18:44:37 26.5 27.6 18.6 26.5 0.7 1.5 1018.3 0.0 0.0 0.0 0.0 252.0 62.0
2024-06-14 18:49:37 26.5 27.6 18.6 26.5 0.6 1.0 1018.3 0.0 0.0 0.0 0.0 278.0 62.0
2024-06-14 18:54:36 26.4 27.5 18.8 26.4 1.3 2.0 1018.3 0.0 0.0 0.0 0.0 272.0 63.0
2024-06-14 18:59:36 26.4 27.5 18.5 26.4 0.1 1.5 1018.5 0.0 0.0 0.0 0.0 294.0 62.0
2024-06-14 19:04:36 26.3 26.6 18.7 26.3 1.2 1.5 1018.6 0.0 0.0 0.0 0.0 246.0 63.0
2024-06-14 19:09:36 26.3 26.6 18.4 26.3 0.6 1.0 1018.7 0.0 0.0 0.0 0.0 256.0 62.0
2024-06-14 19:14:35 26.2 26.5 18.4 26.2 1.0 1.5 1018.4 0.0 0.0 0.0 0.0 262.0 62.0
2024-06-14 19:19:35 26.2 26.5 18.1 26.2 1.5 1.5 1018.8 0.0 0.0 0.0 0.0 295.0 61.0
2024-06-14 19:24:35 26.2 26.5 18.1 26.2 0.6 1.0 1018.8 0.0 0.0 0.0 0.0 299.0 61.0
2024-06-14 19:29:35 26.1 26.4 18.3 26.1 0.5 1.0 1018.8 0.0 0.0 0.0 0.0 315.0 62.0
2024-06-14 19:34:35 26.1 26.4 18.3 26.1 0.7 1.0 1018.8 0.0 0.0 0.0 0.0 324.0 62.0
2024-06-14 19:39:35 25.8 26.0 18.0 25.8 1.0 1.0 1018.8 0.0 0.0 0.0 0.0 352.0 62.0
2024-06-14 19:44:34 25.8 26.2 19.2 25.8 0.0 0.0 1018.8 0.0 0.0 0.0 0.0 28.0 67.0
2024-06-14 19:49:34 25.3 25.7 19.2 25.3 0.0 0.0 1018.8 0.0 0.0 0.0 0.0 31.0 69.0
2024-06-14 19:54:34 24.9 25.3 19.1 24.9 0.0 0.0 1018.7 0.0 0.0 0.0 0.0 25.0 70.0
2024-06-14 19:59:34 24.6 25.0 18.8 24.6 0.0 0.0 1018.9 0.0 0.0 0.0 0.0 28.0 70.0
2024-06-14 20:04:33 24.5 24.8 18.0 24.5 0.0 0.0 1018.9 0.0 0.0 0.0 0.0 26.0 67.0
2024-06-14 20:09:33 24.6 24.9 18.1 24.6 0.0 0.0 1018.9 0.0 0.0 0.0 0.0 14.0 67.0
2024-06-14 20:14:33 24.9 25.3 19.1 24.9 0.0 0.0 1019.0 0.0 0.0 0.0 0.0 39.0 70.0
2024-06-14 20:19:33 24.7 25.1 19.1 24.7 0.0 0.0 1019.0 0.0 0.0 0.0 0.0 79.0 71.0
2024-06-14 20:24:32 24.6 25.0 19.0 24.6 0.0 0.0 1018.8 0.0 0.0 0.0 0.0 81.0 71.0
2024-06-14 20:29:32 24.4 24.7 18.8 24.4 0.0 0.0 1018.9 0.0 0.0 0.0 0.0 80.0 71.0
2024-06-14 20:34:32 24.4 24.7 18.6 24.4 0.0 0.0 1019.3 0.0 0.0 0.0 0.0 87.0 70.0
2024-06-14 20:39:32 24.5 24.8 18.2 24.5 0.8 1.0 1019.1 0.0 0.0 0.0 0.0 112.0 68.0
2024-06-14 20:44:32 24.7 25.1 18.9 24.7 0.0 0.0 1019.0 0.0 0.0 0.0 0.0 82.0 70.0
2024-06-14 20:49:32 24.3 24.5 17.8 24.3 0.0 0.0 1019.1 0.0 0.0 0.0 0.0 99.0 67.0
2024-06-14 20:54:31 24.7 25.1 18.9 24.7 0.4 1.0 1019.1 0.0 0.0 0.0 0.0 101.0 70.0
2024-06-14 20:59:59 24.5 24.9 19.1 24.5 0.1 0.5 1019.2 0.0 0.0 0.0 0.0 68.0 72.0
2024-06-14 21:04:35 24.4 24.8 19.3 24.4 0.0 0.5 1019.4 0.0 0.0 0.0 0.0 67.0 73.0
2024-06-14 21:09:35 24.3 24.7 19.4 24.3 0.4 1.0 1019.1 0.0 0.0 0.0 0.0 92.0 74.0
2024-06-14 21:14:34 24.3 24.7 19.4 24.3 0.6 1.0 1019.1 0.0 0.0 0.0 0.0 94.0 74.0
2024-06-14 21:19:34 24.3 24.7 19.8 24.3 0.8 1.0 1019.2 0.0 0.0 0.0 0.0 123.0 76.0
2024-06-14 21:24:34 24.2 24.7 19.5 24.2 0.1 1.0 1019.5 0.0 0.0 0.0 0.0 76.0 75.0
2024-06-14 21:29:34 24.1 24.5 19.2 24.1 0.8 1.0 1019.3 0.0 0.0 0.0 0.0 97.0 74.0
2024-06-14 21:34:34 24.2 24.6 19.1 24.2 0.5 1.0 1019.2 0.0 0.0 0.0 0.0 108.0 73.0
2024-06-14 21:39:34 24.3 24.6 18.7 24.3 1.0 1.0 1019.4 0.0 0.0 0.0 0.0 108.0 71.0
2024-06-14 21:44:33 24.6 25.1 19.7 24.6 0.9 1.0 1019.3 0.0 0.0 0.0 0.0 82.0 74.0
2024-06-14 21:49:33 24.4 24.9 20.1 24.4 1.0 1.0 1019.3 0.0 0.0 0.0 0.0 83.0 77.0
2024-06-14 21:54:33 24.4 24.9 20.6 24.4 1.0 1.0 1019.5 0.0 0.0 0.0 0.0 103.0 79.0
2024-06-14 21:59:33 24.0 24.5 20.4 24.0 0.6 1.0 1019.4 0.0 0.0 0.0 0.0 99.0 80.0
2024-06-14 22:04:32 23.9 24.4 20.3 23.9 0.5 1.0 1019.5 0.0 0.0 0.0 0.0 112.0 80.0
2024-06-14 22:09:32 23.9 24.4 20.1 23.9 0.5 1.0 1019.2 0.0 0.0 0.0 0.0 101.0 79.0
2024-06-14 22:14:32 23.9 24.4 19.8 23.9 0.6 1.0 1019.2 0.0 0.0 0.0 0.0 94.0 78.0
2024-06-14 22:19:32 24.0 24.5 19.7 24.0 0.3 0.5 1019.3 0.0 0.0 0.0 0.0 92.0 77.0
2024-06-14 22:24:31 24.0 24.5 19.7 24.0 0.0 0.0 1019.3 0.0 0.0 0.0 0.0 74.0 77.0
2024-06-14 22:29:59 24.1 24.6 19.8 24.1 0.0 0.0 1019.4 0.0 0.0 0.0 0.0 57.0 77.0
2024-06-14 22:34:31 23.9 24.4 19.8 23.9 0.0 0.0 1019.2 0.0 0.0 0.0 0.0 62.0 78.0
2024-06-14 22:39:59 23.6 24.0 19.3 23.6 0.0 0.0 1019.3 0.0 0.0 0.0 0.0 34.0 77.0
2024-06-14 22:44:59 23.5 23.9 18.8 23.5 0.0 0.0 1019.4 0.0 0.0 0.0 0.0 49.0 75.0
2024-06-14 22:49:59 23.5 23.8 18.6 23.5 0.0 0.0 1019.4 0.0 0.0 0.0 0.0 81.0 74.0
2024-06-14 22:54:30 23.5 23.8 18.2 23.5 0.0 0.0 1019.6 0.0 0.0 0.0 0.0 57.0 72.0
2024-06-14 22:59:58 23.8 24.0 17.8 23.8 0.0 0.0 1019.5 0.0 0.0 0.0 0.0 42.0 69.0
2024-06-14 23:04:58 24.1 24.5 18.7 24.1 0.0 0.0 1019.4 0.0 0.0 0.0 0.0 52.0 72.0
2024-06-14 23:09:58 23.7 24.1 18.6 23.7 0.0 0.0 1019.4 0.0 0.0 0.0 0.0 28.0 73.0
2024-06-14 23:14:57 23.6 24.0 18.7 23.6 0.0 0.0 1019.7 0.0 0.0 0.0 0.0 52.0 74.0
2024-06-14 23:19:57 23.7 24.1 18.8 23.7 0.3 0.5 1019.7 0.0 0.0 0.0 0.0 61.0 74.0
2024-06-14 23:24:57 23.7 24.1 19.2 23.7 0.1 0.5 1019.9 0.0 0.0 0.0 0.0 43.0 76.0
2024-06-14 23:29:57 23.3 23.6 18.8 23.3 0.0 0.0 1019.6 0.0 0.0 0.0 0.0 38.0 76.0
2024-06-14 23:34:57 23.0 23.3 18.5 23.0 0.0 0.0 1019.7 0.0 0.0 0.0 0.0 38.0 76.0
2024-06-14 23:39:57 23.1 23.4 18.5 23.1 0.0 0.0 1019.6 0.0 0.0 0.0 0.0 20.0 75.0
2024-06-14 23:44:32 23.0 23.3 18.1 23.0 0.0 0.0 1019.6 0.0 0.0 0.0 0.0 28.0 74.0
2024-06-14 23:49:32 23.2 23.6 18.7 23.2 0.0 0.0 1019.6 0.0 0.0 0.0 0.0 51.0 76.0
2024-06-14 23:54:32 23.3 23.6 18.8 23.3 0.0 0.0 1019.6 0.0 0.0 0.0 0.0 71.0 76.0
2024-06-14 23:59:59 23.3 23.6 18.4 23.3 0.0 0.0 1019.7 0.0 0.0 0.0 0.0 72.0 74.0
2024-06-15 00:04:59 23.5 23.9 18.8 23.5 0.0 0.0 1019.6 0.0 0.0 0.0 0.0 63.0 75.0
2024-06-15 00:09:59 23.7 24.2 19.4 23.7 0.0 0.0 1019.8 0.0 0.0 0.0 0.0 33.0 77.0
2024-06-15 00:14:59 22.8 23.0 18.0 22.8 0.0 0.5 1019.6 0.0 0.0 0.0 0.0 6.0 74.0
2024-06-15 00:19:31 22.7 23.0 17.9 22.7 0.0 0.0 1019.5 0.0 0.0 0.0 0.0 31.0 74.0
2024-06-15 00:24:58 22.8 23.1 18.2 22.8 0.0 0.0 1019.7 0.0 0.0 0.0 0.0 31.0 75.0
2024-06-15 00:29:58 22.9 23.2 18.4 22.9 0.0 0.0 1019.6 0.0 0.0 0.0 0.0 90.0 76.0
2024-06-15 00:34:58 23.1 23.5 18.6 23.1 0.0 0.0 1019.6 0.0 0.0 0.0 0.0 29.0 76.0
2024-06-15 00:39:30 23.0 23.3 18.5 23.0 0.0 0.0 1019.6 0.0 0.0 0.0 0.0 31.0 76.0
2024-06-15 00:44:57 22.6 22.9 18.2 22.6 0.0 0.0 1019.7 0.0 0.0 0.0 0.0 32.0 76.0
2024-06-15 00:49:57 22.8 23.1 18.4 22.8 0.0 0.0 1019.7 0.0 0.0 0.0 0.0 32.0 76.0
2024-06-15 00:54:57 22.9 23.3 18.9 22.9 0.0 0.0 1019.5 0.0 0.0 0.0 0.0 32.0 78.0
2024-06-15 00:59:57 22.8 23.2 19.0 22.8 0.0 0.0 1019.6 0.0 0.0 0.0 0.0 16.0 79.0
2024-06-15 01:04:57 22.6 23.0 18.8 22.6 0.0 0.0 1019.5 0.0 0.0 0.0 0.0 16.0 79.0
2024-06-15 01:09:57 22.7 23.1 18.7 22.7 0.0 0.0 1019.6 0.0 0.0 0.0 0.0 51.0 78.0
2024-06-15 01:14:56 22.5 22.8 18.3 22.5 0.0 0.0 1019.6 0.0 0.0 0.0 0.0 67.0 77.0
2024-06-15 01:19:56 22.6 22.9 18.0 22.6 0.0 0.0 1019.4 0.0 0.0 0.0 0.0 54.0 75.0
2024-06-15 01:24:56 22.9 23.2 18.6 22.9 0.0 0.0 1019.3 0.0 0.0 0.0 0.0 29.0 77.0
2024-06-15 01:29:56 22.6 23.0 18.6 22.6 0.0 0.0 1019.4 0.0 0.0 0.0 0.0 17.0 78.0
2024-06-15 01:34:55 22.5 22.8 18.1 22.5 0.0 0.0 1019.3 0.0 0.0 0.0 0.0 54.0 76.0
2024-06-15 01:39:55 22.7 23.1 18.4 22.7 0.0 0.0 1019.3 0.0 0.0 0.0 0.0 74.0 77.0
2024-06-15 01:44:55 22.8 23.1 18.8 22.8 0.0 0.0 1019.5 0.0 0.0 0.0 0.0 55.0 78.0
2024-06-15 01:49:55 22.7 23.1 18.7 22.7 0.0 0.0 1019.3 0.0 0.0 0.0 0.0 62.0 78.0
2024-06-15 01:54:55 22.9 23.3 19.1 22.9 0.0 0.0 1019.3 0.0 0.0 0.0 0.0 35.0 79.0
2024-06-15 01:59:55 22.6 23.0 18.8 22.6 0.0 0.0 1019.2 0.0 0.0 0.0 0.0 31.0 79.0
2024-06-15 02:04:54 22.2 22.5 18.0 22.2 0.0 0.0 1019.4 0.0 0.0 0.0 0.0 15.0 77.0
2024-06-15 02:09:54 22.6 22.9 18.4 22.6 0.0 0.0 1019.4 0.0 0.0 0.0 0.0 22.0 77.0
2024-06-15 02:14:54 22.5 22.8 18.5 22.5 0.0 0.0 1019.4 0.0 0.0 0.0 0.0 8.0 78.0
2024-06-15 02:19:54 22.2 22.5 18.2 22.2 0.0 0.0 1019.4 0.0 0.0 0.0 0.0 59.0 78.0
2024-06-15 02:24:53 22.6 23.0 18.8 22.6 0.0 0.0 1019.3 0.0 0.0 0.0 0.0 58.0 79.0
2024-06-15 02:29:53 22.4 22.7 18.6 22.4 0.0 0.0 1019.2 0.0 0.0 0.0 0.0 44.0 79.0
2024-06-15 02:34:53 22.1 22.4 18.3 22.1 0.0 0.0 1019.4 0.0 0.0 0.0 0.0 27.0 79.0
2024-06-15 02:39:53 22.4 22.7 18.4 22.4 0.0 0.0 1019.5 0.0 0.0 0.0 0.0 68.0 78.0
2024-06-15 02:44:52 22.2 22.5 18.0 22.2 0.0 0.5 1019.3 0.0 0.0 0.0 0.0 15.0 77.0
2024-06-15 02:49:52 22.5 22.9 18.7 22.5 0.0 0.0 1019.5 0.0 0.0 0.0 0.0 94.0 79.0
2024-06-15 02:54:52 22.7 23.1 19.1 22.7 0.0 0.0 1019.5 0.0 0.0 0.0 0.0 107.0 80.0
2024-06-15 02:59:52 22.7 23.2 19.3 22.7 0.0 0.0 1019.3 0.0 0.0 0.0 0.0 102.0 81.0
2024-06-15 03:04:52 22.6 23.0 19.2 22.6 0.5 0.5 1019.6 0.0 0.0 0.0 0.0 90.0 81.0
2024-06-15 03:09:52 22.7 23.2 19.5 22.7 0.9 1.0 1019.5 0.0 0.0 0.0 0.0 85.0 82.0
2024-06-15 03:14:51 22.7 23.2 19.5 22.7 0.7 1.0 1019.4 0.0 0.0 0.0 0.0 78.0 82.0
2024-06-15 03:19:51 22.8 23.3 19.8 22.8 1.1 1.5 1019.6 0.0 0.0 0.0 0.0 101.0 83.0
2024-06-15 03:24:51 22.8 23.3 20.0 22.8 0.0 0.0 1019.7 0.0 0.0 0.0 0.0 68.0 84.0
2024-06-15 03:29:51 22.7 23.2 19.9 22.7 1.4 2.0 1019.6 0.0 0.0 0.0 0.0 99.0 84.0
2024-06-15 03:34:50 22.5 23.0 19.5 22.5 1.7 2.0 1019.5 0.0 0.0 0.0 0.0 126.0 83.0
2024-06-15 03:39:50 22.7 23.2 19.7 22.7 1.6 2.0 1019.5 0.0 0.0 0.0 0.0 113.0 83.0
2024-06-15 03:44:50 23.0 23.6 20.4 23.0 1.8 2.6 1019.6 0.0 0.0 0.0 0.0 95.0 85.0
2024-06-15 03:49:50 22.5 23.0 19.7 22.5 1.5 1.5 1019.4 0.0 0.0 0.0 0.0 79.0 84.0
2024-06-15 03:54:49 22.3 22.7 19.3 22.3 0.7 1.0 1019.4 0.0 0.0 0.0 0.0 72.0 83.0
2024-06-15 03:59:49 22.3 22.7 19.3 22.3 0.0 0.5 1019.5 0.0 0.0 0.0 0.0 80.0 83.0
2024-06-15 04:04:49 22.7 23.3 20.1 22.7 2.0 2.6 1019.4 0.0 0.0 0.0 0.0 86.0 85.0
2024-06-15 04:09:49 22.5 23.0 19.7 22.5 0.5 2.0 1019.4 0.0 0.0 0.0 0.0 68.0 84.0
2024-06-15 04:14:49 22.2 22.7 19.2 22.2 0.6 1.0 1019.6 0.0 0.0 0.0 0.0 80.0 83.0
2024-06-15 04:19:49 22.5 23.0 19.5 22.5 1.7 2.6 1019.5 0.0 0.0 0.0 0.0 43.0 83.0
2024-06-15 04:24:48 22.6 23.1 19.6 22.6 1.9 2.0 1019.4 0.0 0.0 0.0 0.0 82.0 83.0
2024-06-15 04:29:48 22.7 23.2 19.7 22.7 0.7 2.6 1019.5 0.0 0.0 0.0 0.0 83.0 83.0
2024-06-15 04:34:48 22.7 23.2 19.7 22.7 1.5 2.6 1019.7 0.0 0.0 0.0 0.0 93.0 83.0
2024-06-15 04:39:48 22.7 23.2 19.7 22.7 1.7 2.6 1019.7 0.0 0.0 0.0 0.0 97.0 83.0
2024-06-15 04:44:47 22.9 23.4 19.9 22.9 1.3 3.1 1019.6 0.0 0.0 0.0 0.0 87.0 83.0
2024-06-15 04:49:47 22.6 23.1 19.4 22.6 2.8 3.1 1019.4 0.0 0.0 0.0 0.0 92.0 82.0
2024-06-15 04:54:47 22.7 23.1 19.1 22.7 2.5 3.6 1019.5 0.0 0.0 0.0 0.0 92.0 80.0
2024-06-15 04:59:47 22.9 23.3 19.3 22.9 2.0 3.1 1019.5 0.0 0.0 0.0 0.0 77.0 80.0
2024-06-15 05:04:46 22.8 23.2 19.4 22.8 0.9 2.0 1019.5 0.0 0.0 0.0 0.0 74.0 81.0
2024-06-15 05:09:46 22.7 23.1 19.1 22.7 1.5 2.0 1019.9 0.0 0.0 0.0 0.0 64.0 80.0
2024-06-15 05:14:46 22.7 23.2 19.3 22.7 1.7 2.6 1019.6 0.0 0.0 0.0 0.0 87.0 81.0
2024-06-15 05:19:46 22.6 23.1 19.4 22.6 1.8 2.0 1019.8 0.0 0.0 0.0 0.0 84.0 82.0
2024-06-15 05:24:46 22.5 22.9 19.1 22.5 1.8 2.6 1019.7 0.0 0.0 0.0 0.0 75.0 81.0
2024-06-15 05:29:46 22.6 23.0 19.2 22.6 1.6 2.6 1019.9 0.0 0.0 0.0 0.0 85.0 81.0
2024-06-15 05:34:45 22.8 23.2 19.2 22.8 1.3 2.6 1019.7 0.0 0.0 0.0 0.0 36.0 80.0
2024-06-15 05:39:45 22.9 23.3 19.1 22.9 0.9 1.5 1019.8 0.0 0.0 0.0 0.0 42.0 79.0
2024-06-15 05:44:45 23.1 23.5 18.6 23.1 1.8 2.6 1020.0 0.0 0.0 0.0 0.0 62.0 76.0
2024-06-15 05:49:45 23.2 23.6 18.7 23.2 0.5 1.0 1019.8 0.0 0.0 0.0 0.0 28.0 76.0
2024-06-15 05:54:44 22.9 23.2 18.6 22.9 0.0 0.0 1019.9 0.0 0.0 0.0 0.0 13.0 77.0
2024-06-15 05:59:44 22.9 23.3 18.9 22.9 0.4 0.5 1020.0 0.0 0.0 0.0 0.0 77.0 78.0
2024-06-15 06:04:44 22.7 23.1 18.7 22.7 0.6 1.0 1020.0 0.0 0.0 0.0 0.0 132.0 78.0
2024-06-15 06:09:44 22.9 23.3 19.3 22.9 1.1 2.0 1020.0 0.0 0.0 0.0 0.0 98.0 80.0
2024-06-15 06:14:59 22.7 23.2 19.9 22.7 1.1 1.5 1020.0 0.0 0.0 0.0 0.0 110.0 84.0
2024-06-15 06:19:59 22.2 22.7 19.2 22.2 1.5 1.5 1020.2 0.0 0.0 0.0 0.0 121.0 83.0
2024-06-15 06:24:59 22.2 22.6 19.0 22.2 1.3 1.5 1020.2 0.0 0.0 0.0 0.0 126.0 82.0
2024-06-15 06:29:59 22.2 22.6 19.0 22.2 0.0 0.0 1020.4 0.0 0.0 1.2 0.0 11.0 82.0
2024-06-15 06:34:59 22.0 22.4 19.0 22.0 0.0 0.0 1020.4 0.0 0.0 3.4 0.0 68.0 83.0
2024-06-15 06:39:59 22.1 22.6 19.3 22.1 0.7 1.0 1020.1 0.0 0.0 6.5 0.0 106.0 84.0
2024-06-15 06:44:58 22.1 22.5 19.1 22.1 0.0 0.0 1020.1 0.0 0.0 9.9 0.0 24.0 83.0
2024-06-15 06:49:58 22.3 22.7 19.1 22.3 1.5 2.0 1020.5 0.0 0.0 14.3 0.0 127.0 82.0
2024-06-15 06:54:58 22.6 23.0 19.2 22.6 2.1 3.1 1020.3 0.0 0.0 17.3 0.0 96.0 81.0
2024-06-15 06:59:58 22.5 22.9 18.7 22.5 1.6 2.6 1020.5 0.0 0.0 21.2 0.0 81.0 79.0
2024-06-15 07:04:57 22.8 23.2 19.4 22.8 3.1 4.1 1020.5 0.0 0.0 24.7 0.0 74.0 81.0
2024-06-15 07:09:57 22.9 23.4 19.7 22.9 2.5 3.6 1020.6 0.0 0.0 29.5 0.0 87.0 82.0
2024-06-15 07:14:57 23.0 23.5 20.0 23.0 2.6 4.1 1020.7 0.0 0.0 32.9 0.0 79.0 83.0
2024-06-15 07:19:57 22.9 23.4 19.7 22.9 4.3 5.1 1020.6 0.0 0.0 35.5 0.0 84.0 82.0
2024-06-15 07:24:57 22.9 23.3 19.1 22.9 2.2 3.6 1020.9 0.0 0.0 40.2 0.0 87.0 79.0
2024-06-15 07:29:57 23.5 23.9 19.5 23.5 1.7 3.6 1020.6 0.0 0.0 44.2 0.0 80.0 78.0
2024-06-15 07:34:56 23.3 23.8 19.7 23.3 3.0 4.1 1020.7 0.0 0.0 48.1 0.0 86.0 80.0
2024-06-15 07:39:56 23.2 23.7 19.8 23.2 3.8 5.1 1020.8 0.0 0.0 53.7 0.0 96.0 81.0
2024-06-15 07:44:56 23.1 23.6 19.8 23.1 3.0 4.1 1020.9 0.0 0.0 86.7 0.0 114.0 82.0
2024-06-15 07:49:56 22.9 23.4 19.9 22.9 4.0 5.1 1021.0 0.0 0.0 91.5 0.0 105.0 83.0
2024-06-15 07:54:55 23.1 23.6 19.5 23.1 4.6 5.1 1021.1 0.0 0.0 101.4 1.0 84.0 80.0
2024-06-15 07:59:55 23.8 24.2 19.3 23.8 1.8 4.6 1021.2 0.0 0.0 110.6 1.0 68.0 76.0
2024-06-15 08:04:55 24.6 25.1 19.9 24.6 3.1 4.6 1021.1 0.0 0.0 122.3 1.0 97.0 75.0
2024-06-15 08:09:55 24.0 24.4 18.9 24.0 2.3 4.1 1020.9 0.0 0.0 147.4 1.0 113.0 73.0
2024-06-15 08:14:54 25.1 25.5 19.5 25.1 2.6 3.6 1021.2 0.0 0.0 156.1 1.0 99.0 71.0
2024-06-15 08:19:54 24.9 25.4 20.2 24.9 2.3 3.6 1021.4 0.0 0.0 167.0 1.0 99.0 75.0
2024-06-15 08:24:54 24.3 24.3 15.5 24.3 1.0 2.0 1021.5 0.0 0.0 170.4 1.0 293.0 58.0
2024-06-15 08:29:54 25.4 25.9 20.5 25.4 3.4 4.6 1021.4 0.0 0.0 157.8 1.0 110.0 74.0
2024-06-15 08:34:53 24.1 24.4 18.5 24.1 2.5 4.1 1021.6 0.0 0.0 168.7 1.0 112.0 71.0
2024-06-15 08:39:53 25.7 26.1 18.9 25.7 1.3 3.1 1021.7 0.0 0.0 190.8 1.0 82.0 66.0
2024-06-15 08:44:41 25.6 25.8 17.8 25.6 2.2 2.6 1021.5 0.0 0.0 221.2 2.0 112.0 62.0
2024-06-15 08:49:57 25.8 25.6 13.3 25.8 3.6 4.6 1021.6 0.0 0.0 246.4 2.0 12.0 46.0
2024-06-15 08:54:57 27.7 27.8 15.1 27.7 3.1 4.1 1021.6 0.0 0.0 255.4 2.0 82.0 46.0
2024-06-15 08:59:57 27.5 28.7 19.1 27.5 2.0 2.6 1021.6 0.0 0.0 266.3 2.0 75.0 60.0
2024-06-15 09:04:56 26.1 26.3 17.8 26.1 3.4 3.6 1021.6 0.0 0.0 283.2 2.0 97.0 60.0
2024-06-15 09:09:56 26.4 26.7 18.0 26.4 2.8 3.1 1021.5 0.0 0.0 312.3 3.0 76.0 60.0
2024-06-15 09:14:56 26.0 26.4 19.4 26.0 2.8 3.1 1021.8 0.0 0.0 316.2 3.0 120.0 67.0
2024-06-15 09:18:56 26.7 27.1 14.8 26.7 2.5 3.1 1021.6 0.0 0.0 324.9 3.0 18.0 48.0
2024-06-15 09:24:55 27.4 27.8 16.1 27.4 3.1 4.1 1021.9 0.0 0.0 321.4 3.0 48.0 50.0
2024-06-15 09:29:55 27.4 27.4 14.1 27.4 3.3 6.6 1021.8 0.0 0.0 328.7 3.0 359.0 44.0
2024-06-15 09:34:55 27.9 27.8 14.6 27.9 3.6 5.6 1021.8 0.0 0.0 383.4 3.0 25.0 44.0
2024-06-15 09:39:55 27.9 27.8 14.6 27.9 3.3 6.1 1021.9 0.0 0.0 398.6 3.0 352.0 44.0
2024-06-15 09:44:55 28.1 28.0 14.4 28.1 2.2 4.6 1021.9 0.0 0.0 402.5 3.0 333.0 43.0
2024-06-15 09:49:54 28.2 28.0 14.1 28.2 3.0 4.6 1021.9 0.0 0.0 430.7 4.0 358.0 42.0
2024-06-15 09:54:53 28.0 27.8 13.9 28.0 2.1 4.1 1021.9 0.0 0.0 452.9 4.0 1.0 42.0
2024-06-15 09:59:53 28.1 28.1 14.7 28.1 2.7 5.1 1021.8 0.0 0.0 463.3 4.0 347.0 44.0
2024-06-15 10:04:53 28.1 27.9 14.0 28.1 4.0 4.6 1021.8 0.0 0.0 440.7 4.0 335.0 42.0
2024-06-15 10:09:53 28.2 28.0 14.1 28.2 2.7 5.1 1021.7 0.0 0.0 420.7 4.0 355.0 42.0
2024-06-15 10:14:52 28.4 28.2 14.3 28.4 2.4 3.1 1021.7 0.0 0.0 453.3 4.0 359.0 42.0
2024-06-15 10:19:52 28.2 28.0 14.1 28.2 5.2 6.1 1021.8 0.0 0.0 467.2 4.0 334.0 42.0
2024-06-15 10:24:52 28.3 28.1 14.2 28.3 4.1 7.7 1021.8 0.0 0.0 486.7 4.0 324.0 42.0
2024-06-15 10:29:52 28.3 28.1 14.6 28.3 3.1 5.1 1021.8 0.0 0.0 478.8 4.0 333.0 43.0
2024-06-15 10:34:51 28.4 28.3 14.6 28.4 1.7 2.6 1021.7 0.0 0.0 488.0 4.0 12.0 43.0
2024-06-15 10:39:51 28.5 28.2 14.0 28.5 3.4 4.1 1021.8 0.0 0.0 501.8 4.0 288.0 41.0
2024-06-15 10:44:51 28.5 28.3 14.4 28.5 2.2 4.1 1021.6 0.0 0.0 511.0 5.0 344.0 42.0
2024-06-15 10:49:51 28.6 28.4 14.5 28.6 3.3 4.1 1021.9 0.0 0.0 526.5 5.0 294.0 42.0
2024-06-15 10:54:51 28.5 28.3 14.4 28.5 0.7 1.5 1021.6 0.0 0.0 528.4 5.0 8.0 42.0
2024-06-15 10:59:51 28.0 30.0 20.8 28.0 1.3 2.6 1021.6 0.0 0.0 497.9 4.0 71.0 65.0
2024-06-15 11:04:50 27.6 29.0 19.4 27.6 1.3 2.6 1021.4 0.0 0.0 472.3 4.0 217.0 61.0
2024-06-15 11:09:50 28.5 28.3 14.4 28.5 0.6 2.0 1021.5 0.0 0.0 503.2 4.0 19.0 42.0
2024-06-15 11:14:50 27.5 29.2 20.4 27.5 2.2 3.6 1021.4 0.0 0.0 516.6 5.0 91.0 65.0
2024-06-15 11:19:50 26.3 27.6 19.9 26.3 3.0 3.6 1021.3 0.0 0.0 521.8 5.0 86.0 68.0
2024-06-15 11:24:49 25.7 25.9 17.1 25.7 1.6 5.6 1021.2 0.0 0.0 527.9 5.0 12.0 59.0
2024-06-15 11:29:49 28.4 29.4 18.5 28.4 1.9 2.6 1021.2 0.0 0.0 511.0 4.0 79.0 55.0
2024-06-15 11:34:49 26.5 28.0 20.4 26.5 4.0 5.1 1021.0 0.0 0.0 484.1 4.0 90.0 69.0
2024-06-15 11:39:49 26.1 26.6 20.0 26.1 2.2 3.6 1020.8 0.0 0.0 507.1 4.0 86.0 69.0
2024-06-15 11:44:49 26.1 26.6 19.8 26.1 4.1 4.6 1020.8 0.0 0.0 515.3 5.0 81.0 68.0
2024-06-15 11:49:49 26.2 27.6 20.3 26.2 3.3 4.1 1020.9 0.0 0.0 504.0 4.0 81.0 70.0
2024-06-15 11:54:48 26.2 27.6 20.3 26.2 3.3 4.1 1020.8 0.0 0.0 474.5 4.0 92.0 70.0
2024-06-15 11:59:48 26.2 27.5 19.8 26.2 3.4 4.1 1020.7 0.0 0.0 471.1 4.0 82.0 68.0
2024-06-15 12:04:48 26.2 26.6 19.4 26.2 3.3 4.1 1020.5 0.0 0.0 474.9 4.0 81.0 66.0
2024-06-15 12:09:48 26.7 27.9 19.1 26.7 4.2 4.6 1020.4 0.0 0.0 474.9 4.0 63.0 63.0
2024-06-15 12:14:47 26.8 28.0 19.2 26.8 3.0 4.6 1020.3 0.0 0.0 476.7 4.0 83.0 63.0
2024-06-15 12:19:47 26.9 27.9 18.5 26.9 2.8 4.6 1020.2 0.0 0.0 471.5 4.0 82.0 60.0
2024-06-15 12:24:47 27.1 28.0 17.9 27.1 4.5 5.1 1020.1 0.0 0.0 435.0 4.0 87.0 57.0
2024-06-15 12:29:47 27.0 27.7 17.2 27.0 4.5 5.6 1019.8 0.0 0.0 448.1 4.0 75.0 55.0
2024-06-15 12:34:46 27.4 28.4 18.4 27.4 3.8 5.1 1019.8 0.0 0.0 506.2 4.0 85.0 58.0
2024-06-15 12:39:46 27.2 28.0 17.4 27.2 2.7 5.1 1019.9 0.0 0.0 494.5 4.0 74.0 55.0
2024-06-15 12:44:46 27.3 27.9 16.9 27.3 3.6 5.1 1019.7 0.0 0.0 508.4 4.0 84.0 53.0
2024-06-15 12:49:46 27.4 28.0 17.0 27.4 3.5 4.6 1019.7 0.0 0.0 500.6 4.0 74.0 53.0
2024-06-15 12:54:46 27.1 28.1 18.1 27.1 3.6 4.1 1019.5 0.0 0.0 491.1 4.0 75.0 58.0
2024-06-15 12:59:46 27.4 27.9 16.7 27.4 3.2 4.1 1019.5 0.0 0.0 491.4 4.0 89.0 52.0
2024-06-15 13:04:45 27.6 28.0 16.3 27.6 4.2 5.6 1019.6 0.0 0.0 479.7 4.0 73.0 50.0
2024-06-15 13:09:45 27.8 28.6 18.0 27.8 2.2 4.1 1019.4 0.0 0.0 465.0 4.0 92.0 55.0
2024-06-15 13:14:45 27.9 28.6 17.5 27.9 3.6 4.6 1019.4 0.0 0.0 469.8 4.0 80.0 53.0
2024-06-15 13:19:45 27.8 28.4 17.1 27.8 4.2 5.1 1019.3 0.0 0.0 440.7 4.0 92.0 52.0
2024-06-15 13:24:44 27.8 28.4 17.1 27.8 3.9 6.1 1019.2 0.0 0.0 443.7 4.0 98.0 52.0
2024-06-15 13:29:44 27.3 28.4 18.6 27.3 3.4 5.6 1019.1 0.0 0.0 452.4 4.0 86.0 59.0
2024-06-15 13:34:44 27.5 28.6 18.5 27.5 3.7 5.1 1019.1 0.0 0.0 449.0 4.0 89.0 58.0
2024-06-15 13:39:44 27.5 28.5 18.3 27.5 4.7 5.6 1019.0 0.0 0.0 414.7 4.0 88.0 57.0
2024-06-15 13:44:47 27.6 28.8 18.9 27.6 3.3 4.6 1018.9 0.0 0.0 395.2 3.0 106.0 59.0
2024-06-15 13:49:47 28.1 29.0 17.9 28.1 1.9 4.1 1019.1 0.0 0.0 392.9 3.0 84.0 54.0
2024-06-15 13:54:47 28.0 28.9 18.1 28.0 2.6 3.6 1019.0 0.0 0.0 398.6 3.0 76.0 55.0
2024-06-15 13:59:47 28.4 29.1 17.6 28.4 2.7 5.1 1018.9 0.0 0.0 404.2 3.0 66.0 52.0
2024-06-15 14:04:47 28.0 28.8 17.8 28.0 4.0 4.6 1018.8 0.0 0.0 390.9 3.0 94.0 54.0
2024-06-15 14:09:47 28.0 29.1 18.7 28.0 3.6 4.6 1018.9 0.0 0.0 369.9 3.0 83.0 57.0
2024-06-15 14:14:46 28.0 28.5 17.0 28.0 4.1 4.6 1018.9 0.0 0.0 371.8 3.0 94.0 51.0
2024-06-15 14:19:46 28.2 28.7 16.8 28.2 3.2 4.6 1018.8 0.0 0.0 347.4 3.0 71.0 50.0
2024-06-15 14:24:46 28.8 29.0 16.4 28.8 2.8 5.1 1018.9 0.0 0.0 334.8 3.0 80.0 47.0
2024-06-15 14:29:46 28.5 28.9 16.8 28.5 3.3 4.1 1018.9 0.0 0.0 323.6 3.0 85.0 49.0
2024-06-15 14:34:45 28.7 28.7 15.3 28.7 2.9 4.6 1018.8 0.0 0.0 324.9 3.0 89.0 44.0
2024-06-15 14:39:45 28.9 29.3 16.8 28.9 2.5 4.1 1018.6 0.0 0.0 307.1 3.0 57.0 48.0
2024-06-15 14:44:45 28.9 30.3 19.3 28.9 2.2 3.6 1018.7 0.0 0.0 299.2 2.0 111.0 56.0
2024-06-15 14:49:45 27.5 28.8 19.3 27.5 2.5 3.1 1018.6 0.0 0.0 277.6 2.0 118.0 61.0
2024-06-15 14:54:45 27.6 28.8 18.9 27.6 2.7 3.1 1018.5 0.0 0.0 267.2 2.0 138.0 59.0
2024-06-15 14:59:45 27.7 28.7 18.2 27.7 2.3 3.6 1018.4 0.0 0.0 259.0 2.0 121.0 56.0
2024-06-15 15:04:44 27.9 28.9 18.3 27.9 2.5 3.1 1018.6 0.0 0.0 245.9 2.0 120.0 56.0
2024-06-15 15:09:44 28.0 28.9 18.1 28.0 2.1 3.1 1018.5 0.0 0.0 208.2 2.0 114.0 55.0
2024-06-15 15:14:44 28.2 28.9 17.4 28.2 2.2 3.1 1018.6 0.0 0.0 206.9 2.0 118.0 52.0
2024-06-15 15:19:44 28.5 29.4 18.0 28.5 2.4 2.6 1018.5 0.0 0.0 209.1 2.0 116.0 53.0
2024-06-15 15:24:43 28.6 29.0 16.5 28.6 2.5 3.1 1018.4 0.0 0.0 205.5 2.0 124.0 48.0
2024-06-15 15:29:43 28.8 29.3 17.1 28.8 2.2 2.6 1018.6 0.0 0.0 188.3 1.0 132.0 49.0
2024-06-15 15:34:43 29.0 29.4 16.9 29.0 1.5 2.6 1018.5 0.0 0.0 157.0 1.0 140.0 48.0
2024-06-15 15:39:43 29.2 29.7 17.1 29.2 2.4 2.6 1018.6 0.0 0.0 147.4 1.0 129.0 48.0
2024-06-15 15:44:42 29.1 29.4 16.7 29.1 1.7 2.0 1018.4 0.0 0.0 133.1 1.0 110.0 47.0
2024-06-15 15:49:42 29.5 29.6 16.0 29.5 1.1 1.5 1018.6 0.0 0.0 125.8 1.0 94.0 44.0
2024-06-15 15:54:46 29.2 29.7 17.1 29.2 1.5 2.0 1018.4 0.0 0.0 108.9 1.0 114.0 48.0
2024-06-15 15:59:46 29.3 29.3 15.8 29.3 1.5 1.5 1018.7 0.0 0.0 98.0 0.0 107.0 44.0
2024-06-15 16:04:46 29.4 29.1 14.8 29.4 0.9 1.0 1018.6 0.0 0.0 83.2 0.0 108.0 41.0
2024-06-15 16:09:46 29.7 29.3 14.3 29.7 0.5 1.0 1019.1 0.0 0.0 71.9 0.0 92.0 39.0
2024-06-15 16:14:45 29.8 29.7 15.6 29.8 0.9 1.0 1019.1 0.0 0.0 62.9 0.0 102.0 42.0
2024-06-15 16:19:45 29.8 29.7 15.6 29.8 0.5 1.0 1019.3 0.0 0.0 50.7 0.0 88.0 42.0
2024-06-15 16:24:45 29.9 31.2 19.0 29.9 0.5 1.0 1019.1 0.0 0.0 38.5 0.0 291.0 52.0
2024-06-15 16:29:45 29.0 30.2 18.8 29.0 0.4 2.0 1019.2 0.0 0.0 34.3 0.0 217.0 54.0
2024-06-15 16:34:44 28.9 29.9 18.4 28.9 0.7 1.0 1018.9 0.0 0.0 31.2 0.0 256.0 53.0
2024-06-15 16:39:44 28.9 30.0 18.7 28.9 0.4 0.5 1018.7 0.0 0.0 24.2 0.0 90.0 54.0
2024-06-15 16:44:44 28.6 29.5 18.1 28.6 0.0 0.5 1018.8 0.0 0.0 22.5 0.0 35.0 53.0
2024-06-15 16:50:00 28.3 29.2 18.1 28.3 0.8 1.0 1018.8 0.0 0.0 16.9 0.0 198.0 54.0
2024-06-15 16:54:43 28.0 28.9 18.1 28.0 0.9 1.5 1018.6 0.0 0.0 14.3 0.0 270.0 55.0
2024-06-15 16:59:43 27.9 28.8 18.1 27.9 0.0 1.0 1018.8 0.0 0.0 11.3 0.0 54.0 55.0
2024-06-15 17:04:43 27.8 28.7 18.2 27.8 1.8 2.6 1018.7 0.0 0.0 8.2 0.0 164.0 56.0
2024-06-15 17:09:43 27.6 28.4 17.8 27.6 1.7 2.0 1018.7 0.0 0.0 5.1 0.0 234.0 55.0
2024-06-15 17:14:43 27.5 28.3 17.7 27.5 1.0 2.0 1019.0 0.0 0.0 1.7 0.0 100.0 55.0
2024-06-15 17:19:43 27.5 28.3 17.7 27.5 0.6 1.5 1018.7 0.0 0.0 0.4 0.0 126.0 55.0
2024-06-15 17:24:42 27.4 28.1 17.3 27.4 1.0 1.5 1018.8 0.0 0.0 0.0 0.0 233.0 54.0
2024-06-15 17:29:42 27.5 28.1 17.1 27.5 0.4 1.5 1018.8 0.0 0.0 0.0 0.0 197.0 53.0
2024-06-15 17:34:42 27.5 28.1 17.1 27.5 0.4 1.0 1018.7 0.0 0.0 0.0 0.0 210.0 53.0
2024-06-15 17:39:58 27.4 28.3 17.9 27.4 0.0 0.5 1018.7 0.0 0.0 0.0 0.0 315.0 56.0
2024-06-15 17:44:41 27.1 27.9 17.3 27.1 0.8 1.0 1018.9 0.0 0.0 0.0 0.0 277.0 55.0
2024-06-15 17:49:57 27.3 28.1 17.8 27.3 0.9 1.5 1018.9 0.0 0.0 0.0 0.0 281.0 56.0
2024-06-15 17:54:57 27.0 27.8 17.5 27.0 1.5 1.5 1019.2 0.0 0.0 0.0 0.0 262.0 56.0
2024-06-15 17:59:57 26.6 27.4 17.4 26.6 1.8 2.0 1018.8 0.0 0.0 0.0 0.0 235.0 57.0
2024-06-15 18:04:56 26.4 26.6 17.5 26.4 1.8 2.6 1019.1 0.0 0.0 0.0 0.0 269.0 58.0
2024-06-15 18:09:56 26.5 27.3 17.3 26.5 1.5 2.0 1019.1 0.0 0.0 0.0 0.0 240.0 57.0
2024-06-15 18:14:56 26.5 27.3 17.3 26.5 1.0 1.5 1019.0 0.0 0.0 0.0 0.0 243.0 57.0
2024-06-15 18:19:56 26.5 27.3 17.0 26.5 1.2 1.5 1019.2 0.0 0.0 0.0 0.0 254.0 56.0
2024-06-15 18:24:56 26.5 27.3 17.3 26.5 0.0 0.5 1019.2 0.0 0.0 0.0 0.0 289.0 57.0
2024-06-15 18:29:56 26.5 27.3 17.0 26.5 0.0 0.5 1019.2 0.0 0.0 0.0 0.0 235.0 56.0
2024-06-15 18:34:43 26.6 27.3 16.8 26.6 1.4 1.5 1019.5 0.0 0.0 0.0 0.0 254.0 55.0
2024-06-15 18:39:43 26.6 27.3 16.8 26.6 0.4 0.5 1019.1 0.0 0.0 0.0 0.0 279.0 55.0
2024-06-15 18:44:43 26.6 27.4 17.1 26.6 0.1 0.5 1019.2 0.0 0.0 0.0 0.0 351.0 56.0
2024-06-15 18:49:43 26.5 27.3 17.0 26.5 0.1 0.5 1019.2 0.0 0.0 0.0 0.0 227.0 56.0
2024-06-15 18:54:42 26.4 26.5 16.9 26.4 0.0 0.5 1019.1 0.0 0.0 0.0 0.0 343.0 56.0
2024-06-15 18:59:58 26.3 26.5 17.9 26.3 0.0 0.5 1019.5 0.0 0.0 0.0 0.0 38.0 60.0
2024-06-15 19:04:58 25.7 25.9 17.4 25.7 1.0 1.0 1019.3 0.0 0.0 0.0 0.0 17.0 60.0
2024-06-15 19:09:42 25.7 25.8 16.3 25.7 0.9 1.0 1019.4 0.0 0.0 0.0 0.0 356.0 56.0
2024-06-15 19:14:57 25.5 25.8 18.2 25.5 0.0 0.0 1019.6 0.0 0.0 0.0 0.0 353.0 64.0
2024-06-15 19:19:57 25.1 25.2 16.8 25.1 0.0 0.0 1019.4 0.0 0.0 0.0 0.0 57.0 60.0
2024-06-15 19:24:57 25.6 25.9 18.3 25.6 0.5 0.5 1019.6 0.0 0.0 0.0 0.0 18.0 64.0
2024-06-15 19:29:57 25.3 25.6 18.3 25.3 0.0 0.0 1019.4 0.0 0.0 0.0 0.0 37.0 65.0
2024-06-15 19:34:41 25.2 25.4 17.4 25.2 1.0 1.0 1019.5 0.0 0.0 0.0 0.0 7.0 62.0
2024-06-15 19:39:57 25.5 25.7 17.5 25.5 0.0 0.5 1019.4 0.0 0.0 0.0 0.0 335.0 61.0
2024-06-15 19:44:44 25.7 25.9 17.4 25.7 0.4 1.0 1019.3 0.0 0.0 0.0 0.0 341.0 60.0
2024-06-15 19:49:44 25.6 25.8 17.3 25.6 0.1 1.0 1019.5 0.0 0.0 0.0 0.0 3.0 60.0
2024-06-15 19:54:44 25.4 25.6 17.9 25.4 0.0 0.0 1019.4 0.0 0.0 0.0 0.0 54.0 63.0
2024-06-15 19:59:44 25.0 25.1 16.7 25.0 0.6 1.0 1019.3 0.0 0.0 0.0 0.0 11.0 60.0
2024-06-15 20:04:43 25.3 25.5 18.0 25.3 0.0 0.5 1019.5 0.0 0.0 0.0 0.0 26.0 64.0
2024-06-15 20:09:43 24.9 25.1 17.4 24.9 0.0 0.0 1019.3 0.0 0.0 0.0 0.0 40.0 63.0
2024-06-15 20:14:43 25.1 25.4 18.1 25.1 0.5 1.0 1019.4 0.0 0.0 0.0 0.0 24.0 65.0
2024-06-15 20:19:43 25.0 25.3 18.0 25.0 0.2 0.5 1019.5 0.0 0.0 0.0 0.0 81.0 65.0
2024-06-15 20:24:43 25.3 25.5 17.8 25.3 0.0 1.0 1019.3 0.0 0.0 0.0 0.0 41.0 63.0
2024-06-15 20:29:43 25.0 25.3 18.0 25.0 0.0 0.0 1019.3 0.0 0.0 0.0 0.0 79.0 65.0
2024-06-15 20:34:42 24.9 25.2 18.1 24.9 0.0 0.0 1019.2 0.0 0.0 0.0 0.0 64.0 66.0
2024-06-15 20:39:42 24.7 25.0 18.2 24.7 0.0 0.0 1019.2 0.0 0.0 0.0 0.0 41.0 67.0
2024-06-15 20:44:42 24.4 24.6 17.6 24.4 0.0 0.0 1019.4 0.0 0.0 0.0 0.0 33.0 66.0
2024-06-15 20:49:58 24.3 24.5 17.3 24.3 0.0 0.0 1019.3 0.0 0.0 0.0 0.0 32.0 65.0
2024-06-15 20:54:57 24.7 25.0 17.9 24.7 0.0 0.0 1019.4 0.0 0.0 0.0 0.0 31.0 66.0
2024-06-15 20:59:41 24.8 25.1 18.7 24.8 0.0 0.0 1019.3 0.0 0.0 0.0 0.0 69.0 69.0
2024-06-15 21:04:57 24.6 24.9 18.3 24.6 0.0 0.0 1019.3 0.0 0.0 0.0 0.0 71.0 68.0
2024-06-15 21:09:57 24.4 24.7 18.1 24.4 0.0 0.0 1019.4 0.0 0.0 0.0 0.0 71.0 68.0
2024-06-15 21:14:56 24.4 24.6 17.9 24.4 0.0 0.0 1019.3 0.0 0.0 0.0 0.0 52.0 67.0
2024-06-15 21:19:56 24.4 24.6 17.6 24.4 0.0 0.0 1019.5 0.0 0.0 0.0 0.0 43.0 66.0
2024-06-15 21:24:56 24.5 24.7 17.7 24.5 0.0 0.0 1019.4 0.0 0.0 0.0 0.0 39.0 66.0
2024-06-15 21:29:56 24.5 24.8 18.2 24.5 0.0 0.0 1019.5 0.0 0.0 0.0 0.0 52.0 68.0
2024-06-15 21:34:55 24.7 25.1 19.1 24.7 0.0 0.0 1019.5 0.0 0.0 0.0 0.0 50.0 71.0
2024-06-15 21:39:55 24.1 24.4 18.3 24.1 0.5 1.0 1019.5 0.0 0.0 0.0 0.0 25.0 70.0
2024-06-15 21:44:55 24.3 24.6 18.7 24.3 0.4 0.5 1019.4 0.0 0.0 0.0 0.0 67.0 71.0
2024-06-15 21:49:55 24.5 24.9 19.1 24.5 0.0 0.5 1019.6 0.0 0.0 0.0 0.0 62.0 72.0
2024-06-15 21:54:55 24.1 24.4 18.5 24.1 0.0 0.0 1019.4 0.0 0.0 0.0 0.0 55.0 71.0
2024-06-15 21:59:55 24.1 24.4 17.8 24.1 0.8 1.0 1019.5 0.0 0.0 0.0 0.0 108.0 68.0
2024-06-15 22:04:54 24.6 24.9 18.1 24.6 1.1 1.5 1019.6 0.0 0.0 0.0 0.0 126.0 67.0
2024-06-15 22:09:54 24.7 25.1 18.9 24.7 1.5 1.5 1019.7 0.0 0.0 0.0 0.0 126.0 70.0
2024-06-15 22:14:54 24.4 24.8 19.0 24.4 1.0 1.5 1019.5 0.0 0.0 0.0 0.0 116.0 72.0
2024-06-15 22:19:54 24.4 24.8 19.3 24.4 0.9 1.0 1019.5 0.0 0.0 0.0 0.0 103.0 73.0
2024-06-15 22:24:54 24.0 24.3 18.4 24.0 0.4 1.5 1019.5 0.0 0.0 0.0 0.0 88.0 71.0
2024-06-15 22:29:54 24.5 24.8 18.0 24.5 1.5 2.0 1019.4 0.0 0.0 0.0 0.0 12.0 67.0
2024-06-15 22:34:53 25.2 25.4 17.2 25.2 1.5 2.0 1019.6 0.0 0.0 0.0 0.0 9.0 61.0
2024-06-15 22:39:53 25.4 25.6 17.4 25.4 1.6 3.1 1019.4 0.0 0.0 0.0 0.0 355.0 61.0
2024-06-15 22:44:53 25.3 25.5 17.3 25.3 2.0 2.6 1019.4 0.0 0.0 0.0 0.0 5.0 61.0
2024-06-15 22:49:53 25.3 25.5 17.8 25.3 2.0 2.0 1019.4 0.0 0.0 0.0 0.0 4.0 63.0
2024-06-15 22:54:52 25.2 25.5 17.9 25.2 1.9 2.0 1019.4 0.0 0.0 0.0 0.0 5.0 64.0
2024-06-15 22:59:52 25.0 25.3 18.0 25.0 1.0 2.0 1019.3 0.0 0.0 0.0 0.0 28.0 65.0
2024-06-15 23:04:56 25.1 25.3 17.6 25.1 1.3 2.0 1019.3 0.0 0.0 0.0 0.0 341.0 63.0
2024-06-15 23:09:56 25.2 25.5 17.9 25.2 0.8 1.0 1019.2 0.0 0.0 0.0 0.0 340.0 64.0
2024-06-15 23:14:55 25.0 25.3 18.2 25.0 0.0 0.0 1019.2 0.0 0.0 0.0 0.0 33.0 66.0
2024-06-15 23:19:55 24.6 24.9 17.8 24.6 0.0 0.0 1019.2 0.0 0.0 0.0 0.0 43.0 66.0
2024-06-15 23:24:55 24.7 24.9 17.7 24.7 1.0 1.5 1019.3 0.0 0.0 0.0 0.0 48.0 65.0
2024-06-15 23:29:55 24.8 25.1 18.3 24.8 0.4 1.0 1019.4 0.0 0.0 0.0 0.0 43.0 67.0
2024-06-15 23:34:54 24.5 24.7 17.5 24.5 0.1 0.5 1019.4 0.0 0.0 0.0 0.0 59.0 65.0
2024-06-15 23:39:54 24.6 24.9 18.1 24.6 0.0 0.0 1019.1 0.0 0.0 0.0 0.0 38.0 67.0
2024-06-15 23:44:54 24.7 25.1 18.9 24.7 1.1 1.5 1019.1 0.0 0.0 0.0 0.0 76.0 70.0
2024-06-15 23:49:54 24.9 25.3 19.7 24.9 1.4 1.5 1019.4 0.0 0.0 0.0 0.0 78.0 73.0
2024-06-15 23:54:42 24.5 24.9 19.6 24.5 1.9 2.0 1019.1 0.0 0.0 0.0 0.0 96.0 74.0
2024-06-15 23:59:58 24.2 24.7 19.9 24.2 0.8 1.5 1019.2 0.0 0.0 0.0 0.0 79.0 77.0
2024-06-16 00:04:57 24.1 24.6 20.0 24.1 1.5 1.5 1019.3 0.0 0.0 0.0 0.0 89.0 78.0
2024-06-16 00:09:41 24.0 24.5 20.2 24.0 0.8 1.0 1019.2 0.0 0.0 0.0 0.0 78.0 79.0
2024-06-16 00:14:57 23.8 24.2 19.8 23.8 0.5 1.5 1019.0 0.0 0.0 0.0 0.0 79.0 78.0
2024-06-16 00:19:57 23.7 24.2 19.4 23.7 0.6 1.0 1018.9 0.0 0.0 0.0 0.0 81.0 77.0
2024-06-16 00:24:56 23.7 24.2 19.4 23.7 0.5 0.5 1019.1 0.0 0.0 0.0 0.0 67.0 77.0
2024-06-16 00:29:56 23.6 24.1 19.6 23.6 0.0 0.0 1019.0 0.0 0.0 0.0 0.0 62.0 78.0
2024-06-16 00:34:56 23.5 23.9 19.5 23.5 0.4 0.5 1019.2 0.0 0.0 0.0 0.0 75.0 78.0
2024-06-16 00:39:56 23.5 24.0 19.7 23.5 0.5 1.0 1019.1 0.0 0.0 0.0 0.0 97.0 79.0
2024-06-16 00:44:55 23.6 24.1 19.8 23.6 0.9 1.0 1019.0 0.0 0.0 0.0 0.0 66.0 79.0
2024-06-16 00:49:55 23.5 23.9 19.5 23.5 2.0 2.0 1019.1 0.0 0.0 0.0 0.0 90.0 78.0
2024-06-16 00:54:55 23.5 24.0 19.7 23.5 1.3 2.0 1019.1 0.0 0.0 0.0 0.0 112.0 79.0
2024-06-16 00:59:55 23.6 24.1 20.0 23.6 1.5 2.6 1019.1 0.0 0.0 0.0 0.0 89.0 80.0
2024-06-16 01:04:55 23.4 23.8 19.4 23.4 1.0 1.5 1018.8 0.0 0.0 0.0 0.0 87.0 78.0
2024-06-16 01:09:55 23.6 24.1 19.6 23.6 1.1 1.5 1019.2 0.0 0.0 0.0 0.0 82.0 78.0
2024-06-16 01:14:58 23.4 23.8 18.9 23.4 1.3 2.0 1019.1 0.0 0.0 0.0 0.0 87.0 76.0
2024-06-16 01:19:42 23.8 24.2 19.3 23.8 0.6 1.0 1018.8 0.0 0.0 0.0 0.0 88.0 76.0
2024-06-16 01:24:42 23.6 24.0 19.1 23.6 1.1 1.5 1019.1 0.0 0.0 0.0 0.0 82.0 76.0
2024-06-16 01:29:42 23.3 23.6 18.8 23.3 0.0 0.0 1019.1 0.0 0.0 0.0 0.0 89.0 76.0
2024-06-16 01:34:57 23.3 23.6 18.8 23.3 0.6 1.5 1018.9 0.0 0.0 0.0 0.0 87.0 76.0
2024-06-16 01:39:25 23.4 23.8 18.9 23.4 2.1 2.6 1018.7 0.0 0.0 0.0 0.0 90.0 76.0
2024-06-16 01:44:57 23.6 24.0 18.7 23.6 2.3 2.6 1018.8 0.0 0.0 0.0 0.0 79.0 74.0
2024-06-16 01:49:57 23.7 24.1 18.6 23.7 1.8 2.6 1018.9 0.0 0.0 0.0 0.0 81.0 73.0
2024-06-16 01:54:56 23.4 23.7 18.1 23.4 1.1 2.6 1018.7 0.0 0.0 0.0 0.0 74.0 72.0
2024-06-16 01:59:56 23.8 24.1 18.9 23.8 2.4 3.1 1018.7 0.0 0.0 0.0 0.0 94.0 74.0
2024-06-16 02:04:56 23.8 24.2 19.1 23.8 2.7 3.1 1018.8 0.0 0.0 0.0 0.0 99.0 75.0
2024-06-16 02:09:56 23.7 24.0 18.3 23.7 0.4 2.6 1018.7 0.0 0.0 0.0 0.0 73.0 72.0
2024-06-16 02:14:56 23.8 24.0 18.0 23.8 1.7 2.6 1018.5 0.0 0.0 0.0 0.0 83.0 70.0
2024-06-16 02:19:56 23.8 24.0 17.8 23.8 1.3 2.6 1018.5 0.0 0.0 0.0 0.0 81.0 69.0
2024-06-16 02:24:59 23.8 24.0 17.8 23.8 1.3 2.0 1018.8 0.0 0.0 0.0 0.0 48.0 69.0
2024-06-16 02:29:43 23.9 24.2 18.3 23.9 0.8 1.5 1018.5 0.0 0.0 0.0 0.0 60.0 71.0
2024-06-16 02:34:43 23.6 23.9 18.3 23.6 0.9 1.5 1018.7 0.0 0.0 0.0 0.0 84.0 72.0
2024-06-16 02:39:43 23.4 23.6 17.9 23.4 2.2 2.6 1018.7 0.0 0.0 0.0 0.0 99.0 71.0
2024-06-16 02:44:42 23.5 23.9 18.8 23.5 1.2 2.6 1018.9 0.0 0.0 0.0 0.0 62.0 75.0
2024-06-16 02:49:42 23.3 23.6 18.7 23.3 2.2 2.6 1018.8 0.0 0.0 0.0 0.0 97.0 75.0
2024-06-16 02:54:58 23.3 23.6 18.4 23.3 0.6 1.5 1018.7 0.0 0.0 0.0 0.0 47.0 74.0
2024-06-16 02:59:58 23.3 23.6 18.4 23.3 1.3 1.5 1018.7 0.0 0.0 0.0 0.0 112.0 74.0
2024-06-16 03:04:58 23.3 23.6 18.4 23.3 1.5 2.0 1018.5 0.0 0.0 0.0 0.0 47.0 74.0
2024-06-16 03:09:42 23.3 23.6 18.4 23.3 1.7 2.6 1018.4 0.0 0.0 0.0 0.0 75.0 74.0
2024-06-16 03:14:57 23.3 23.6 18.7 23.3 1.6 2.6 1018.4 0.0 0.0 0.0 0.0 37.0 75.0
2024-06-16 03:19:57 23.3 23.6 18.7 23.3 2.7 3.1 1018.3 0.0 0.0 0.0 0.0 28.0 75.0
2024-06-16 03:24:57 23.3 23.6 18.8 23.3 0.9 2.6 1018.6 0.0 0.0 0.0 0.0 21.0 76.0
2024-06-16 03:29:57 23.3 23.6 18.7 23.3 2.0 2.6 1018.4 0.0 0.0 0.0 0.0 30.0 75.0
2024-06-16 03:34:56 23.4 23.7 18.8 23.4 1.8 2.0 1018.5 0.0 0.0 0.0 0.0 51.0 75.0
2024-06-16 03:39:56 23.3 23.6 18.4 23.3 2.2 2.6 1018.4 0.0 0.0 0.0 0.0 63.0 74.0
2024-06-16 03:44:56 23.2 23.6 18.6 23.2 1.7 3.1 1018.3 0.0 0.0 0.0 0.0 63.0 75.0
2024-06-16 03:49:56 23.2 23.5 18.3 23.2 1.8 2.6 1018.5 0.0 0.0 0.0 0.0 62.0 74.0
2024-06-16 03:54:55 23.2 23.6 18.6 23.2 0.8 2.6 1018.4 0.0 0.0 0.0 0.0 64.0 75.0
2024-06-16 03:59:55 23.1 23.4 18.2 23.1 2.0 2.6 1018.3 0.0 0.0 0.0 0.0 67.0 74.0
2024-06-16 04:04:55 23.2 23.5 18.3 23.2 1.7 2.6 1018.4 0.0 0.0 0.0 0.0 70.0 74.0
2024-06-16 04:09:55 23.1 23.5 18.6 23.1 1.0 2.0 1018.3 0.0 0.0 0.0 0.0 162.0 76.0
2024-06-16 04:14:55 22.9 23.3 18.9 22.9 0.9 1.5 1018.4 0.0 0.0 0.0 0.0 94.0 78.0
2024-06-16 04:19:55 22.9 23.2 18.6 22.9 1.1 1.5 1018.3 0.0 0.0 0.0 0.0 115.0 77.0
2024-06-16 04:24:54 22.8 23.1 18.5 22.8 1.5 1.5 1018.1 0.0 0.0 0.0 0.0 106.0 77.0
2024-06-16 04:29:54 22.9 23.2 18.6 22.9 1.3 1.5 1018.2 0.0 0.0 0.0 0.0 97.0 77.0
2024-06-16 04:34:54 22.7 23.1 19.1 22.7 2.7 3.1 1018.1 0.0 0.0 0.0 0.0 90.0 80.0
2024-06-16 04:39:54 22.7 23.2 19.5 22.7 2.7 4.1 1018.3 0.0 0.0 0.0 0.0 79.0 82.0
2024-06-16 04:44:53 22.7 23.2 19.9 22.7 2.4 4.1 1018.1 0.0 0.0 0.0 0.0 82.0 84.0
2024-06-16 04:49:53 22.3 22.7 19.3 22.3 1.7 3.6 1018.2 0.0 0.0 0.0 0.0 86.0 83.0
2024-06-16 04:54:53 22.6 23.1 19.8 22.6 2.0 3.6 1018.1 0.0 0.0 0.0 0.0 89.0 84.0
2024-06-16 04:59:53 22.3 22.7 19.1 22.3 1.8 2.0 1018.3 0.0 0.0 0.0 0.0 99.0 82.0
2024-06-16 05:04:52 22.5 22.9 19.3 22.5 1.7 2.6 1018.2 0.0 0.0 0.0 0.0 102.0 82.0
2024-06-16 05:09:56 22.6 23.0 19.2 22.6 1.7 2.0 1018.2 0.0 0.0 0.0 0.0 87.0 81.0
2024-06-16 05:14:52 22.5 22.9 18.9 22.5 1.0 2.0 1018.3 0.0 0.0 0.0 0.0 76.0 80.0
2024-06-16 05:19:52 22.5 22.9 19.1 22.5 2.5 3.1 1018.5 0.0 0.0 0.0 0.0 81.0 81.0
2024-06-16 05:24:52 22.6 23.1 19.6 22.6 1.5 3.1 1018.6 0.0 0.0 0.0 0.0 69.0 83.0
2024-06-16 05:29:52 22.3 22.7 18.9 22.3 1.8 2.6 1018.4 0.0 0.0 0.0 0.0 86.0 81.0
2024-06-16 05:34:51 22.7 23.1 19.1 22.7 1.1 2.0 1018.0 0.0 0.0 0.0 0.0 40.0 80.0
2024-06-16 05:39:51 22.6 23.0 19.0 22.6 2.1 2.6 1018.2 0.0 0.0 0.0 0.0 72.0 80.0
2024-06-16 05:44:51 22.7 23.2 19.5 22.7 1.7 2.0 1018.4 0.0 0.0 0.0 0.0 70.0 82.0
2024-06-16 05:49:51 22.4 22.8 19.2 22.4 0.1 1.0 1018.1 0.0 0.0 0.0 0.0 126.0 82.0
2024-06-16 05:54:50 22.6 23.1 19.6 22.6 2.0 3.1 1018.4 0.0 0.0 0.0 0.0 84.0 83.0
2024-06-16 05:59:50 22.3 22.7 19.3 22.3 0.7 1.5 1018.3 0.0 0.0 0.0 0.0 56.0 83.0
2024-06-16 06:04:50 22.5 23.0 19.5 22.5 0.5 1.0 1018.3 0.0 0.0 0.0 0.0 76.0 83.0
2024-06-16 06:09:50 22.4 22.9 19.4 22.4 0.5 1.0 1018.4 0.0 0.0 0.0 0.0 52.0 83.0
2024-06-16 06:14:50 22.4 22.9 19.6 22.4 0.6 2.0 1018.4 0.0 0.0 0.0 0.0 84.0 84.0
2024-06-16 06:19:50 22.4 22.9 19.4 22.4 1.3 2.6 1018.4 0.0 0.0 0.0 0.0 54.0 83.0
2024-06-16 06:24:49 22.4 22.9 19.6 22.4 1.1 2.6 1018.5 0.0 0.0 0.0 0.0 70.0 84.0
2024-06-16 06:29:49 22.2 22.7 19.4 22.2 0.0 1.0 1018.6 0.0 0.0 0.9 0.0 42.0 84.0
2024-06-16 06:34:49 22.2 22.7 19.2 22.2 2.4 3.1 1018.7 0.0 0.0 2.9 0.0 73.0 83.0
2024-06-16 06:39:49 22.2 22.7 19.2 22.2 2.3 3.1 1018.5 0.0 0.0 6.5 0.0 83.0 83.0
2024-06-16 06:44:48 22.3 22.8 19.5 22.3 1.2 3.1 1018.7 0.0 0.0 9.5 0.0 64.0 84.0
2024-06-16 06:49:48 22.4 22.9 19.6 22.4 1.5 2.0 1018.9 0.0 0.0 13.3 0.0 71.0 84.0
2024-06-16 06:54:48 22.3 22.7 19.3 22.3 1.8 2.6 1018.8 0.0 0.0 17.3 0.0 83.0 83.0
2024-06-16 06:59:48 22.4 22.9 19.4 22.4 1.6 2.6 1019.1 0.0 0.0 20.8 0.0 76.0 83.0
2024-06-16 07:04:47 22.4 22.9 19.4 22.4 1.1 3.1 1018.8 0.0 0.0 25.1 0.0 77.0 83.0
2024-06-16 07:09:47 22.5 23.0 19.5 22.5 2.7 3.6 1018.9 0.0 0.0 29.5 0.0 75.0 83.0
2024-06-16 07:14:47 22.5 23.0 19.5 22.5 2.5 4.1 1019.2 0.0 0.0 32.9 0.0 70.0 83.0
2024-06-16 07:19:47 22.5 22.9 19.3 22.5 3.1 4.1 1018.9 0.0 0.0 36.8 0.0 69.0 82.0
2024-06-16 07:24:47 22.6 23.1 19.4 22.6 3.2 4.6 1019.1 0.0 0.0 40.7 0.0 82.0 82.0
2024-06-16 07:29:47 22.6 23.1 19.8 22.6 2.6 4.6 1019.2 0.0 0.0 45.0 0.0 78.0 84.0
2024-06-16 07:34:46 22.5 23.0 19.7 22.5 3.6 5.1 1019.2 0.0 0.0 48.9 0.0 71.0 84.0
2024-06-16 07:39:50 22.6 23.1 19.8 22.6 2.8 4.6 1019.2 0.0 0.0 54.6 0.0 79.0 84.0
2024-06-16 07:44:50 22.6 23.1 19.6 22.6 3.9 5.6 1019.4 0.0 0.0 85.0 0.0 83.0 83.0
2024-06-16 07:49:50 22.7 23.2 19.9 22.7 3.4 4.6 1019.3 0.0 0.0 89.3 0.0 77.0 84.0
2024-06-16 07:54:49 22.8 23.3 19.8 22.8 2.7 6.1 1019.6 0.0 0.0 97.5 0.0 84.0 83.0
2024-06-16 07:59:49 22.9 23.4 19.7 22.9 2.4 4.6 1019.6 0.0 0.0 110.6 1.0 79.0 82.0
2024-06-16 08:04:49 23.0 23.5 19.8 23.0 3.1 5.1 1019.5 0.0 0.0 117.9 1.0 80.0 82.0
2024-06-16 08:09:49 23.0 23.5 19.6 23.0 3.7 5.1 1019.6 0.0 0.0 135.3 1.0 83.0 81.0
2024-06-16 08:14:48 23.2 23.7 19.6 23.2 3.7 5.1 1019.6 0.0 0.0 147.9 1.0 75.0 80.0
2024-06-16 08:19:48 23.1 23.6 19.7 23.1 3.2 5.1 1019.6 0.0 0.0 155.2 1.0 82.0 81.0
2024-06-16 08:24:48 23.2 23.7 19.8 23.2 3.6 5.1 1019.7 0.0 0.0 158.3 1.0 78.0 81.0
2024-06-16 08:29:48 23.3 23.8 19.8 23.3 3.9 5.1 1019.9 0.0 0.0 152.2 1.0 86.0 81.0
2024-06-16 08:34:47 23.4 23.9 19.8 23.4 3.1 4.6 1019.8 0.0 0.0 158.7 1.0 72.0 80.0
2024-06-16 08:39:47 23.5 24.0 19.7 23.5 3.4 4.1 1019.9 0.0 0.0 176.0 1.0 85.0 79.0
2024-06-16 08:44:47 23.4 23.9 19.8 23.4 3.5 4.6 1019.9 0.0 0.0 206.0 2.0 70.0 80.0
2024-06-16 08:49:47 23.4 23.9 19.9 23.4 2.7 4.1 1020.1 0.0 0.0 226.8 2.0 85.0 81.0
2024-06-16 08:54:47 23.4 23.9 19.9 23.4 2.7 3.6 1020.0 0.0 0.0 229.0 2.0 82.0 81.0
2024-06-16 08:59:47 23.5 24.0 20.0 23.5 4.1 4.6 1020.2 0.0 0.0 242.8 2.0 96.0 81.0
2024-06-16 09:04:46 23.6 24.2 20.3 23.6 3.4 4.1 1020.3 0.0 0.0 259.4 2.0 85.0 82.0
2024-06-16 09:09:46 23.5 24.1 20.5 23.5 3.9 5.1 1020.2 0.0 0.0 284.1 2.0 86.0 83.0
2024-06-16 09:14:46 23.3 23.9 20.5 23.3 4.1 5.1 1020.1 0.0 0.0 294.1 2.0 97.0 84.0
2024-06-16 09:19:46 23.1 23.7 20.3 23.1 3.4 4.6 1020.2 0.0 0.0 297.2 2.0 105.0 84.0
2024-06-16 09:24:45 23.1 23.7 20.3 23.1 3.6 5.1 1020.1 0.0 0.0 304.5 2.0 101.0 84.0
2024-06-16 09:29:45 22.9 23.4 20.1 22.9 3.4 4.6 1020.1 0.0 0.0 296.2 2.0 89.0 84.0
2024-06-16 09:34:45 23.0 23.5 19.8 23.0 4.1 5.1 1020.0 0.0 0.0 353.9 3.0 106.0 82.0
2024-06-16 09:39:45 23.2 23.7 19.9 23.2 4.3 5.1 1019.8 0.0 0.0 373.5 3.0 95.0 82.0
2024-06-16 09:44:46 23.1 23.6 20.1 23.1 4.5 5.1 1019.9 0.0 0.0 373.9 3.0 94.0 83.0
2024-06-16 09:49:46 23.2 23.8 20.2 23.2 4.0 5.1 1019.9 0.0 0.0 396.0 3.0 105.0 83.0
2024-06-16 09:54:45 23.4 24.0 20.4 23.4 4.3 5.6 1019.8 0.0 0.0 430.3 4.0 103.0 83.0
2024-06-16 09:59:45 24.0 24.6 20.5 24.0 3.8 6.1 1019.9 0.0 0.0 449.3 4.0 100.0 81.0
2024-06-16 10:04:45 23.9 24.5 20.6 23.9 4.4 5.6 1019.8 0.0 0.0 437.7 4.0 106.0 82.0
2024-06-16 10:09:45 23.7 24.3 20.7 23.7 4.1 5.1 1019.7 0.0 0.0 422.4 4.0 97.0 83.0
2024-06-16 10:14:45 23.8 24.4 20.5 23.8 3.3 4.1 1019.8 0.0 0.0 423.3 4.0 83.0 82.0
2024-06-16 10:19:45 24.0 24.5 20.4 24.0 4.1 5.6 1019.7 0.0 0.0 457.2 4.0 100.0 80.0
2024-06-16 10:24:44 24.0 24.4 19.5 24.0 1.7 3.1 1019.5 0.0 0.0 484.1 4.0 107.0 76.0
2024-06-16 10:29:44 24.7 25.2 20.2 24.7 2.7 3.6 1019.5 0.0 0.0 475.4 4.0 125.0 76.0
2024-06-16 10:34:44 25.0 25.4 19.2 25.0 0.3 3.6 1019.5 0.0 0.0 471.1 4.0 65.0 70.0
2024-06-16 10:39:44 27.2 28.8 20.1 27.2 0.4 3.6 1019.5 0.0 0.0 484.5 4.0 136.0 65.0
2024-06-16 10:44:43 24.9 25.4 20.6 24.9 2.4 4.6 1019.4 0.0 0.0 490.6 4.0 94.0 77.0
2024-06-16 10:49:43 24.7 25.2 19.8 24.7 1.2 4.1 1019.2 0.0 0.0 512.2 5.0 78.0 74.0
2024-06-16 10:54:43 26.1 26.6 20.2 26.1 1.4 3.1 1019.5 0.0 0.0 514.4 5.0 20.0 70.0
2024-06-16 10:59:46 26.6 28.3 20.9 26.6 1.5 3.1 1019.4 0.0 0.0 489.7 4.0 79.0 71.0
2024-06-16 11:04:46 26.5 28.0 20.6 26.5 2.2 4.1 1019.3 0.0 0.0 452.4 4.0 54.0 70.0
2024-06-16 11:09:46 26.0 26.5 20.4 26.0 3.8 4.6 1019.2 0.0 0.0 476.3 4.0 86.0 71.0
2024-06-16 11:14:46 25.9 26.4 20.0 25.9 2.2 4.1 1019.1 0.0 0.0 517.0 5.0 56.0 70.0
2024-06-16 11:19:45 26.0 26.5 20.6 26.0 3.1 4.6 1019.0 0.0 0.0 524.0 5.0 72.0 72.0
2024-06-16 11:24:45 26.3 27.8 20.6 26.3 3.0 4.1 1019.0 0.0 0.0 508.8 4.0 76.0 71.0
2024-06-16 11:29:45 26.0 26.5 20.4 26.0 3.2 4.6 1018.9 0.0 0.0 495.3 4.0 83.0 71.0
2024-06-16 11:34:45 25.9 26.4 20.3 25.9 4.1 4.6 1018.8 0.0 0.0 488.0 4.0 86.0 71.0
2024-06-16 11:39:45 26.0 26.5 20.4 26.0 3.7 5.1 1018.6 0.0 0.0 508.8 4.0 79.0 71.0
2024-06-16 11:44:45 26.3 27.8 20.9 26.3 3.1 4.6 1018.6 0.0 0.0 514.1 5.0 81.0 72.0
2024-06-16 11:49:44 25.9 26.4 20.5 25.9 4.0 5.1 1018.6 0.0 0.0 497.1 4.0 87.0 72.0
2024-06-16 11:54:44 25.9 26.3 19.8 25.9 4.6 5.6 1018.4 0.0 0.0 488.9 4.0 84.0 69.0
2024-06-16 11:59:44 25.9 26.4 20.5 25.9 3.8 5.1 1018.4 0.0 0.0 479.3 4.0 84.0 72.0
2024-06-16 12:04:44 25.8 26.3 20.8 25.8 3.3 4.6 1018.4 0.0 0.0 483.2 4.0 85.0 74.0
2024-06-16 12:09:43 25.7 26.2 20.3 25.7 3.7 4.6 1018.1 0.0 0.0 478.5 4.0 80.0 72.0
2024-06-16 12:14:43 26.0 26.6 21.0 26.0 4.3 5.1 1017.9 0.0 0.0 483.6 4.0 124.0 74.0
2024-06-16 12:19:43 25.6 26.2 21.1 25.6 2.6 4.1 1018.0 0.0 0.0 482.4 4.0 117.0 76.0
2024-06-16 12:24:43 25.8 26.4 21.1 25.8 3.4 4.1 1017.8 0.0 0.0 449.0 4.0 110.0 75.0
2024-06-16 12:29:43 26.3 27.6 19.7 26.3 3.4 4.1 1017.7 0.0 0.0 445.4 4.0 90.0 67.0
2024-06-16 12:34:43 26.7 28.1 19.8 26.7 3.1 4.1 1017.6 0.0 0.0 506.6 4.0 76.0 66.0
2024-06-16 12:39:46 26.6 28.1 20.2 26.6 3.6 4.6 1017.6 0.0 0.0 507.9 4.0 84.0 68.0
2024-06-16 12:44:46 26.5 27.9 19.9 26.5 4.0 4.6 1017.5 0.0 0.0 511.4 4.0 96.0 67.0
2024-06-16 12:49:46 26.6 28.0 20.0 26.6 3.6 4.6 1017.5 0.0 0.0 507.1 4.0 94.0 67.0
2024-06-16 12:54:46 26.3 27.7 20.2 26.3 3.7 4.6 1017.3 0.0 0.0 496.2 4.0 88.0 69.0
2024-06-16 12:59:45 26.7 28.1 19.8 26.7 4.0 4.6 1017.2 0.0 0.0 497.1 4.0 94.0 66.0
2024-06-16 13:04:45 26.8 28.2 19.9 26.8 4.0 4.6 1017.3 0.0 0.0 491.4 4.0 70.0 66.0
2024-06-16 13:09:45 26.7 28.3 20.3 26.7 4.1 4.6 1017.2 0.0 0.0 469.3 4.0 22.0 68.0
2024-06-16 13:14:45 26.5 28.2 21.3 26.5 3.3 4.1 1017.1 0.0 0.0 468.9 4.0 97.0 73.0
2024-06-16 13:19:44 26.5 28.4 21.9 26.5 2.7 3.1 1017.0 0.0 0.0 439.8 4.0 99.0 76.0
2024-06-16 13:24:44 26.0 26.6 20.8 26.0 3.3 3.6 1017.0 0.0 0.0 445.4 4.0 102.0 73.0
2024-06-16 13:29:44 26.4 28.0 20.9 26.4 3.2 3.6 1016.7 0.0 0.0 448.5 4.0 103.0 72.0
2024-06-16 13:34:44 26.6 28.2 20.5 26.6 2.8 3.6 1016.6 0.0 0.0 455.5 4.0 108.0 69.0
2024-06-16 13:39:44 26.7 28.3 20.3 26.7 2.7 3.6 1016.7 0.0 0.0 405.5 3.0 117.0 68.0
2024-06-16 13:44:44 27.0 28.5 19.9 27.0 2.4 3.1 1016.5 0.0 0.0 383.9 3.0 110.0 65.0
2024-06-16 13:49:43 27.1 28.7 20.2 27.1 3.2 3.6 1016.5 0.0 0.0 396.0 3.0 105.0 66.0
2024-06-16 13:54:43 27.0 28.5 19.9 27.0 2.7 4.1 1016.4 0.0 0.0 397.4 3.0 104.0 65.0
2024-06-16 13:59:43 26.9 28.4 20.3 26.9 3.1 3.6 1016.3 0.0 0.0 397.7 3.0 114.0 67.0
2024-06-16 14:04:43 26.9 28.6 20.7 26.9 2.9 3.6 1016.3 0.0 0.0 387.8 3.0 102.0 69.0
2024-06-16 14:09:42 26.9 28.7 21.2 26.9 2.7 3.1 1016.3 0.0 0.0 361.3 3.0 107.0 71.0
2024-06-16 14:14:42 26.9 28.7 21.2 26.9 2.0 2.6 1016.3 0.0 0.0 375.2 3.0 112.0 71.0
2024-06-16 14:19:42 27.0 28.9 21.3 27.0 2.1 3.1 1016.2 0.0 0.0 353.6 3.0 103.0 71.0
2024-06-16 14:24:42 27.2 29.2 21.3 27.2 1.5 2.0 1016.2 0.0 0.0 340.1 3.0 113.0 70.0
2024-06-16 14:29:41 27.3 29.2 21.1 27.3 1.9 2.0 1015.9 0.0 0.0 323.1 3.0 111.0 69.0
2024-06-16 14:34:41 27.5 29.5 21.1 27.5 2.1 2.6 1016.1 0.0 0.0 324.9 3.0 102.0 68.0
2024-06-16 14:39:41 27.7 29.6 20.6 27.7 1.7 2.6 1016.1 0.0 0.0 305.4 2.0 98.0 65.0
2024-06-16 14:44:41 28.0 29.7 20.1 28.0 1.8 2.0 1016.0 0.0 0.0 299.2 2.0 115.0 62.0
2024-06-16 14:49:41 28.2 29.9 20.0 28.2 1.5 2.0 1015.7 0.0 0.0 283.2 2.0 107.0 61.0
2024-06-16 14:54:41 28.4 30.0 19.9 28.4 1.4 2.0 1015.9 0.0 0.0 272.8 2.0 113.0 60.0
2024-06-16 14:59:40 28.5 30.3 20.3 28.5 1.8 2.0 1015.8 0.0 0.0 256.8 2.0 111.0 61.0
2024-06-16 15:04:40 28.4 29.8 19.4 28.4 0.8 1.5 1015.5 0.0 0.0 251.2 2.0 108.0 58.0
2024-06-16 15:09:40 28.7 30.9 20.7 28.7 0.7 1.0 1015.7 0.0 0.0 208.6 2.0 105.0 62.0
2024-06-16 15:14:40 28.2 29.7 19.5 28.2 2.0 2.6 1015.6 0.0 0.0 208.6 2.0 120.0 59.0
2024-06-16 15:19:39 28.7 30.2 19.4 28.7 2.6 4.1 1015.6 0.0 0.0 206.0 2.0 159.0 57.0
2024-06-16 15:24:39 27.8 29.6 20.4 27.8 2.4 3.1 1015.8 0.0 0.0 210.8 2.0 123.0 64.0
2024-06-16 15:29:39 27.5 29.3 20.6 27.5 2.4 3.1 1016.0 0.0 0.0 191.2 1.0 154.0 66.0
2024-06-16 15:34:39 27.1 28.7 20.2 27.1 0.8 4.6 1016.0 0.0 0.0 156.1 1.0 111.0 66.0
2024-06-16 15:39:38 26.8 28.3 20.4 26.8 2.6 4.6 1015.7 0.0 0.0 147.9 1.0 136.0 68.0
2024-06-16 15:44:38 26.7 28.2 20.1 26.7 1.7 2.6 1016.2 0.0 0.0 134.0 1.0 119.0 67.0
2024-06-16 15:49:38 26.8 28.1 19.7 26.8 0.8 3.1 1016.2 0.0 0.0 123.6 1.0 97.0 65.0
2024-06-16 15:54:38 26.7 28.1 19.8 26.7 1.7 3.1 1016.3 0.0 0.0 108.4 1.0 123.0 66.0
2024-06-16 15:59:38 26.8 28.2 19.9 26.8 0.3 1.5 1016.4 0.0 0.0 98.4 0.0 89.0 66.0
2024-06-16 16:04:38 26.6 27.8 19.3 26.6 1.9 2.6 1016.4 0.0 0.0 83.7 0.0 240.0 64.0
2024-06-16 16:09:37 26.9 28.2 19.3 26.9 1.3 1.5 1016.8 0.0 0.0 71.9 0.0 220.0 63.0
2024-06-16 16:19:37 26.6 27.6 18.2 26.6 2.6 4.1 1017.1 0.0 0.0 55.1 0.0 145.0 60.0
2024-06-16 16:24:37 26.7 27.7 18.3 26.7 1.5 3.1 1017.1 0.0 0.0 41.1 0.0 213.0 60.0
2024-06-16 16:29:36 26.7 27.7 18.3 26.7 2.5 4.1 1016.9 0.0 0.0 36.0 0.0 135.0 60.0
2024-06-16 16:34:36 26.8 27.7 18.1 26.8 1.8 3.1 1017.0 0.0 0.0 31.6 0.0 158.0 59.0
2024-06-16 16:39:36 27.0 27.9 18.1 27.0 1.1 1.5 1017.0 0.0 0.0 26.4 0.0 1.0 58.0
2024-06-16 16:44:36 27.0 27.8 17.5 27.0 0.1 0.5 1017.0 0.0 0.0 22.9 0.0 144.0 56.0
2024-06-16 16:49:36 26.9 27.7 17.7 26.9 1.3 1.5 1017.1 0.0 0.0 17.3 0.0 114.0 57.0
2024-06-16 16:54:36 26.8 27.7 17.9 26.8 0.0 0.5 1017.2 0.0 0.0 14.7 0.0 97.0 58.0
2024-06-16 16:59:35 26.8 27.7 17.9 26.8 0.1 1.0 1017.2 0.0 0.0 12.1 0.0 12.0 58.0
2024-06-16 17:04:35 26.6 27.4 17.4 26.6 1.0 1.5 1017.0 0.0 0.0 7.7 0.0 122.0 57.0
2024-06-16 17:09:35 26.7 27.5 17.2 26.7 0.6 1.0 1016.9 0.0 0.0 3.8 0.0 256.0 56.0
2024-06-16 17:14:35 26.7 27.6 17.5 26.7 0.0 0.5 1017.2 0.0 0.0 2.1 0.0 3.0 57.0
2024-06-16 17:19:34 26.5 27.3 17.3 26.5 0.3 0.5 1017.0 0.0 0.0 0.4 0.0 335.0 57.0
2024-06-16 17:24:34 26.5 27.4 17.6 26.5 0.0 0.5 1016.9 0.0 0.0 0.0 0.0 63.0 58.0
2024-06-16 17:29:34 26.3 26.5 17.9 26.3 0.1 2.0 1017.0 0.0 0.0 0.0 0.0 75.0 60.0
2024-06-16 17:34:34 26.3 26.6 18.4 26.3 0.5 1.0 1016.7 0.0 0.0 0.0 0.0 274.0 62.0
2024-06-16 17:39:33 26.3 26.5 17.9 26.3 0.0 1.5 1016.6 0.0 0.0 0.0 0.0 8.0 60.0
2024-06-16 17:44:37 26.2 26.5 17.9 26.2 0.6 1.0 1016.6 0.0 0.0 0.0 0.0 268.0 60.0
2024-06-16 17:49:37 26.3 26.5 17.7 26.3 0.0 0.5 1016.6 0.0 0.0 0.0 0.0 8.0 59.0
2024-06-16 17:54:37 26.3 26.5 17.4 26.3 0.9 1.0 1016.4 0.0 0.0 0.0 0.0 191.0 58.0
2024-06-16 17:59:37 26.3 26.4 17.1 26.3 0.8 1.0 1016.5 0.0 0.0 0.0 0.0 235.0 57.0
2024-06-16 18:04:37 26.5 27.4 17.6 26.5 1.3 1.5 1016.4 0.0 0.0 0.0 0.0 221.0 58.0
2024-06-16 18:09:36 26.4 26.6 17.5 26.4 0.5 1.5 1016.5 0.0 0.0 0.0 0.0 218.0 58.0
2024-06-16 18:14:36 26.2 26.4 17.6 26.2 1.0 1.5 1016.4 0.0 0.0 0.0 0.0 173.0 59.0
2024-06-16 18:19:36 26.2 26.5 17.9 26.2 1.0 1.5 1016.6 0.0 0.0 0.0 0.0 160.0 60.0
2024-06-16 18:24:36 26.2 26.5 17.9 26.2 0.8 1.0 1016.7 0.0 0.0 0.0 0.0 258.0 60.0
2024-06-16 18:29:35 26.3 26.6 18.2 26.3 1.1 1.5 1016.7 0.0 0.0 0.0 0.0 258.0 61.0
2024-06-16 18:34:35 26.3 26.5 17.9 26.3 1.0 2.0 1016.7 0.0 0.0 0.0 0.0 259.0 60.0
2024-06-16 18:39:35 26.3 26.6 18.2 26.3 0.7 1.5 1017.2 0.0 0.0 0.0 0.0 278.0 61.0
2024-06-16 18:44:35 26.2 26.5 18.1 26.2 0.7 1.5 1016.8 0.0 0.0 0.0 0.0 308.0 61.0
2024-06-16 18:49:34 26.2 26.5 18.1 26.2 0.0 1.0 1016.8 0.0 0.0 0.0 0.0 257.0 61.0
2024-06-16 18:54:34 26.1 26.4 18.3 26.1 0.7 1.0 1017.1 0.0 0.0 0.0 0.0 212.0 62.0
2024-06-16 18:59:34 25.9 26.2 18.6 25.9 0.7 1.0 1017.1 0.0 0.0 0.0 0.0 145.0 64.0
2024-06-16 19:04:34 25.7 26.1 18.9 25.7 1.0 1.5 1016.8 0.0 0.0 0.0 0.0 231.0 66.0
2024-06-16 19:09:34 25.5 25.9 18.9 25.5 0.7 1.0 1016.9 0.0 0.0 0.0 0.0 216.0 67.0
2024-06-16 19:14:34 25.4 25.7 18.6 25.4 0.0 0.5 1017.0 0.0 0.0 0.0 0.0 66.0 66.0
2024-06-16 19:19:33 25.4 25.7 18.4 25.4 0.5 1.0 1017.1 0.0 0.0 0.0 0.0 278.0 65.0
2024-06-16 19:24:33 25.5 25.8 18.2 25.5 0.0 0.0 1016.9 0.0 0.0 0.0 0.0 244.0 64.0
2024-06-16 19:29:33 25.5 25.8 18.2 25.5 0.8 1.0 1017.2 0.0 0.0 0.0 0.0 218.0 64.0
2024-06-16 19:34:33 25.4 25.7 18.6 25.4 0.0 0.5 1017.1 0.0 0.0 0.0 0.0 107.0 66.0
2024-06-16 19:39:32 25.3 25.6 18.5 25.3 0.3 0.5 1016.9 0.0 0.0 0.0 0.0 232.0 66.0
2024-06-16 19:44:32 25.3 25.6 18.7 25.3 0.8 1.0 1016.7 0.0 0.0 0.0 0.0 209.0 67.0
2024-06-16 19:49:32 25.3 25.6 18.7 25.3 0.4 1.0 1016.7 0.0 0.0 0.0 0.0 239.0 67.0
2024-06-16 19:54:32 25.3 25.6 18.5 25.3 0.0 0.0 1016.8 0.0 0.0 0.0 0.0 31.0 66.0
2024-06-16 19:59:31 25.1 25.4 18.3 25.1 0.0 0.0 1016.7 0.0 0.0 0.0 0.0 354.0 66.0
2024-06-16 20:04:31 25.2 25.5 18.4 25.2 0.4 0.5 1016.9 0.0 0.0 0.0 0.0 198.0 66.0
2024-06-16 20:09:31 25.2 25.5 18.6 25.2 0.0 0.0 1016.9 0.0 0.0 0.0 0.0 134.0 67.0
2024-06-16 20:14:31 25.1 25.4 18.5 25.1 0.0 1.0 1016.8 0.0 0.0 0.0 0.0 170.0 67.0
2024-06-16 20:19:31 25.1 25.5 18.8 25.1 0.5 1.0 1016.6 0.0 0.0 0.0 0.0 345.0 68.0
2024-06-16 20:24:31 24.9 25.2 18.1 24.9 0.3 1.0 1016.7 0.0 0.0 0.0 0.0 2.0 66.0
2024-06-16 20:29:30 24.9 25.2 18.4 24.9 0.0 0.0 1016.8 0.0 0.0 0.0 0.0 354.0 67.0
2024-06-16 20:34:30 24.7 25.0 18.4 24.7 0.0 0.0 1016.9 0.0 0.0 0.0 0.0 60.0 68.0
2024-06-16 20:39:58 24.7 25.0 18.4 24.7 0.0 0.0 1017.1 0.0 0.0 0.0 0.0 54.0 68.0
2024-06-16 20:44:58 24.9 25.3 19.5 24.9 0.0 0.0 1016.8 0.0 0.0 0.0 0.0 48.0 72.0
2024-06-16 20:49:57 24.7 25.2 19.5 24.7 0.0 0.0 1016.8 0.0 0.0 0.0 0.0 47.0 73.0
2024-06-16 20:54:29 24.4 24.8 19.5 24.4 0.0 0.0 1016.9 0.0 0.0 0.0 0.0 52.0 74.0
2024-06-16 20:59:57 24.2 24.7 19.5 24.2 0.0 0.0 1016.8 0.0 0.0 0.0 0.0 46.0 75.0
2024-06-16 21:04:57 24.1 24.5 19.4 24.1 0.0 0.0 1016.8 0.0 0.0 0.0 0.0 45.0 75.0
2024-06-16 21:09:57 24.0 24.4 19.3 24.0 0.0 0.0 1016.7 0.0 0.0 0.0 0.0 49.0 75.0
2024-06-16 21:14:57 23.5 23.8 18.4 23.5 0.0 0.0 1016.7 0.0 0.0 0.0 0.0 45.0 73.0
2024-06-16 21:19:56 24.2 24.6 19.3 24.2 0.0 0.5 1016.7 0.0 0.0 0.0 0.0 68.0 74.0
2024-06-16 21:24:56 24.0 24.4 19.1 24.0 0.6 1.0 1016.9 0.0 0.0 0.0 0.0 88.0 74.0
2024-06-16 21:29:56 24.2 24.6 19.3 24.2 0.0 0.0 1016.8 0.0 0.0 0.0 0.0 64.0 74.0
2024-06-16 21:34:56 24.2 24.7 19.5 24.2 0.0 0.0 1016.8 0.0 0.0 0.0 0.0 66.0 75.0
2024-06-16 21:39:55 24.2 24.6 19.3 24.2 0.0 0.0 1016.6 0.0 0.0 0.0 0.0 71.0 74.0
2024-06-16 21:44:55 24.5 25.0 20.2 24.5 0.0 0.0 1016.8 0.0 0.0 0.0 0.0 70.0 77.0
2024-06-16 21:49:55 24.0 24.5 19.7 24.0 0.0 0.0 1016.6 0.0 0.0 0.0 0.0 110.0 77.0
2024-06-16 21:54:55 24.0 24.4 19.3 24.0 1.5 1.5 1016.7 0.0 0.0 0.0 0.0 136.0 75.0
2024-06-16 21:59:54 24.3 24.7 19.2 24.3 0.9 1.0 1016.8 0.0 0.0 0.0 0.0 125.0 73.0
2024-06-16 22:04:54 24.4 24.8 19.5 24.4 0.5 1.0 1016.6 0.0 0.0 0.0 0.0 101.0 74.0
2024-06-16 22:09:54 24.4 24.8 19.7 24.4 0.1 0.5 1016.5 0.0 0.0 0.0 0.0 60.0 75.0
2024-06-16 22:14:54 24.2 24.7 19.5 24.2 0.2 0.5 1016.5 0.0 0.0 0.0 0.0 85.0 75.0
2024-06-16 22:19:53 24.6 25.1 20.3 24.6 0.0 0.0 1016.5 0.0 0.0 0.0 0.0 52.0 77.0
2024-06-16 22:24:53 24.2 24.8 20.4 24.2 0.0 0.0 1016.4 0.0 0.0 0.0 0.0 50.0 79.0
2024-06-16 22:29:53 24.0 24.5 20.2 24.0 0.0 0.5 1016.5 0.0 0.0 0.0 0.0 108.0 79.0
2024-06-16 22:34:53 23.7 24.1 19.2 23.7 0.0 0.0 1016.5 0.0 0.0 0.0 0.0 74.0 76.0
2024-06-16 22:39:53 23.9 24.3 19.2 23.9 0.0 0.0 1016.6 0.0 0.0 0.0 0.0 64.0 75.0
2024-06-16 22:44:53 24.7 25.3 21.0 24.7 0.0 1.0 1016.5 0.0 0.0 0.0 0.0 58.0 80.0
2024-06-16 22:49:52 24.2 24.8 20.9 24.2 0.5 0.5 1016.4 0.0 0.0 0.0 0.0 354.0 82.0
2024-06-16 22:54:52 23.2 23.7 19.8 23.2 0.0 0.5 1016.6 0.0 0.0 0.0 0.0 38.0 81.0
2024-06-16 22:59:56 23.4 23.9 19.8 23.4 0.0 0.0 1016.2 0.0 0.0 0.0 0.0 42.0 80.0
2024-06-16 23:04:56 23.5 24.0 19.9 23.5 0.0 0.0 1016.4 0.0 0.0 0.0 0.0 55.0 80.0
2024-06-16 23:09:55 23.5 24.0 19.9 23.5 0.0 0.0 1016.3 0.0 0.0 0.0 0.0 16.0 80.0
2024-06-16 23:14:55 23.5 23.9 19.0 23.5 1.0 1.5 1016.2 0.0 0.0 0.0 0.0 130.0 76.0
2024-06-16 23:19:55 24.4 24.8 19.5 24.4 0.5 0.5 1016.3 0.0 0.0 0.0 0.0 107.0 74.0
2024-06-16 23:24:55 24.4 24.9 19.9 24.4 0.8 1.5 1016.1 0.0 0.0 0.0 0.0 120.0 76.0
2024-06-16 23:29:55 24.3 24.7 19.8 24.3 0.5 1.0 1016.4 0.0 0.0 0.0 0.0 131.0 76.0
2024-06-16 23:34:55 24.2 24.7 19.7 24.2 0.4 1.0 1016.3 0.0 0.0 0.0 0.0 83.0 76.0
2024-06-16 23:39:54 24.3 24.8 20.5 24.3 0.0 0.0 1016.2 0.0 0.0 0.0 0.0 65.0 79.0
2024-06-16 23:44:54 24.1 24.7 20.5 24.1 0.0 0.0 1016.3 0.0 0.0 0.0 0.0 24.0 80.0
2024-06-16 23:49:54 23.6 24.1 20.0 23.6 0.0 0.0 1016.4 0.0 0.0 0.0 0.0 37.0 80.0
2024-06-16 23:54:54 23.4 23.9 19.8 23.4 0.0 0.0 1016.4 0.0 0.0 0.0 0.0 50.0 80.0
2024-06-16 23:59:53 23.4 23.8 19.6 23.4 0.0 0.0 1016.3 0.0 0.0 0.0 0.0 41.0 79.0
2024-06-17 00:04:53 23.5 24.0 19.9 23.5 0.0 0.0 1016.4 0.0 0.0 0.0 0.0 32.0 80.0
2024-06-17 00:09:53 23.3 23.8 19.7 23.3 0.0 0.0 1016.6 0.0 0.0 0.0 0.0 18.0 80.0
2024-06-17 00:14:53 23.3 23.8 19.7 23.3 0.0 0.0 1016.2 0.0 0.0 0.0 0.0 73.0 80.0
2024-06-17 00:19:53 23.4 23.9 19.8 23.4 0.0 0.0 1016.4 0.0 0.0 0.0 0.0 46.0 80.0
2024-06-17 00:24:53 23.5 24.0 19.9 23.5 0.0 0.0 1016.5 0.0 0.0 0.0 0.0 27.0 80.0
2024-06-17 00:29:52 23.0 23.4 19.4 23.0 0.0 0.0 1016.3 0.0 0.0 0.0 0.0 15.0 80.0
2024-06-17 00:34:52 23.1 23.6 19.5 23.1 0.0 0.0 1016.3 0.0 0.0 0.0 0.0 35.0 80.0
2024-06-17 00:39:52 23.1 23.6 19.5 23.1 0.0 0.0 1016.5 0.0 0.0 0.0 0.0 238.0 80.0
2024-06-17 00:44:52 23.2 23.6 19.2 23.2 0.0 0.0 1016.4 0.0 0.0 0.0 0.0 103.0 78.0
2024-06-17 00:49:51 23.8 24.3 20.2 23.8 0.0 0.0 1016.2 0.0 0.0 0.0 0.0 64.0 80.0
2024-06-17 00:54:51 22.6 23.0 18.8 22.6 0.0 0.0 1016.4 0.0 0.0 0.0 0.0 335.0 79.0
2024-06-17 00:59:51 23.1 23.5 19.3 23.1 0.0 0.0 1016.4 0.0 0.0 0.0 0.0 22.0 79.0
2024-06-17 01:05:07 23.1 23.6 19.5 23.1 0.0 0.0 1016.1 0.0 0.0 0.0 0.0 8.0 80.0
2024-06-17 01:09:50 22.5 22.9 18.9 22.5 0.0 0.0 1016.2 0.0 0.0 0.0 0.0 32.0 80.0
2024-06-17 01:14:51 22.7 23.1 18.9 22.7 0.0 0.0 1016.2 0.0 0.0 0.0 0.0 35.0 79.0
2024-06-17 01:19:51 22.6 23.0 18.6 22.6 0.0 0.0 1016.2 0.0 0.0 0.0 0.0 24.0 78.0
2024-06-17 01:24:51 22.5 22.8 18.3 22.5 0.0 0.0 1016.1 0.0 0.0 0.0 0.0 58.0 77.0
2024-06-17 01:29:51 23.0 23.4 19.0 23.0 0.0 0.0 1016.1 0.0 0.0 0.0 0.0 69.0 78.0
2024-06-17 01:34:51 22.9 23.3 18.9 22.9 0.0 0.0 1015.9 0.0 0.0 0.0 0.0 74.0 78.0
2024-06-17 01:39:50 23.0 23.4 19.0 23.0 0.2 0.5 1015.8 0.0 0.0 0.0 0.0 99.0 78.0
2024-06-17 01:44:50 23.3 23.7 19.0 23.3 0.6 1.0 1015.9 0.0 0.0 0.0 0.0 98.0 77.0
2024-06-17 01:49:50 23.3 23.6 18.8 23.3 0.0 0.0 1015.8 0.0 0.0 0.0 0.0 44.0 76.0
2024-06-17 01:54:50 23.4 23.8 19.4 23.4 0.0 0.0 1015.9 0.0 0.0 0.0 0.0 77.0 78.0
2024-06-17 01:59:53 23.5 24.0 19.9 23.5 0.9 1.5 1015.7 0.0 0.0 0.0 0.0 84.0 80.0
2024-06-17 02:04:53 23.2 23.7 19.4 23.2 0.8 1.5 1015.6 0.0 0.0 0.0 0.0 66.0 79.0
2024-06-17 02:09:53 23.4 23.8 19.6 23.4 0.7 1.0 1015.8 0.0 0.0 0.0 0.0 79.0 79.0
2024-06-17 02:14:53 23.6 24.1 20.0 23.6 1.7 2.0 1015.7 0.0 0.0 0.0 0.0 89.0 80.0
2024-06-17 02:19:52 23.5 24.0 19.7 23.5 1.3 2.6 1015.7 0.0 0.0 0.0 0.0 88.0 79.0
2024-06-17 02:24:28 23.5 24.0 20.0 23.5 0.0 1.5 1015.9 0.0 0.0 0.0 0.0 69.0 81.0
2024-06-17 02:29:56 23.1 23.6 19.5 23.1 0.4 1.0 1015.7 0.0 0.0 0.0 0.0 117.0 80.0
2024-06-17 02:34:56 22.9 23.3 19.3 22.9 0.0 0.5 1015.8 0.0 0.0 0.0 0.0 83.0 80.0
2024-06-17 02:39:56 23.3 23.8 19.7 23.3 0.1 0.5 1015.5 0.0 0.0 0.0 0.0 70.0 80.0
2024-06-17 02:44:56 23.2 23.7 19.8 23.2 0.0 0.0 1015.7 0.0 0.0 0.0 0.0 60.0 81.0
2024-06-17 02:49:55 23.2 23.7 19.6 23.2 0.0 0.0 1015.5 0.0 0.0 0.0 0.0 26.0 80.0
2024-06-17 02:54:55 23.1 23.5 18.6 23.1 1.7 2.0 1015.3 0.0 0.0 0.0 0.0 60.0 76.0
2024-06-17 02:59:55 24.0 24.4 18.9 24.0 2.0 3.6 1015.5 0.0 0.0 0.0 0.0 55.0 73.0
2024-06-17 03:04:59 24.2 24.6 18.8 24.2 1.6 2.6 1015.2 0.0 0.0 0.0 0.0 64.0 72.0
2024-06-17 03:09:58 24.2 24.6 18.8 24.2 0.8 1.5 1015.4 0.0 0.0 0.0 0.0 67.0 72.0
2024-06-17 03:14:30 24.2 24.6 19.1 24.2 0.6 1.0 1015.5 0.0 0.0 0.0 0.0 38.0 73.0
2024-06-17 03:19:58 24.0 24.4 19.1 24.0 0.9 1.5 1015.1 0.0 0.0 0.0 0.0 79.0 74.0
2024-06-17 03:24:58 24.0 24.3 18.6 24.0 0.4 1.0 1015.6 0.0 0.0 0.0 0.0 44.0 72.0
2024-06-17 03:29:57 24.2 24.5 17.9 24.2 1.5 2.0 1015.4 0.0 0.0 0.0 0.0 52.0 68.0
2024-06-17 03:34:45 24.7 25.1 18.6 24.7 1.2 1.5 1015.5 0.0 0.0 0.0 0.0 42.0 69.0
2024-06-17 03:39:33 24.5 24.8 18.2 24.5 1.0 1.0 1015.4 0.0 0.0 0.0 0.0 61.0 68.0
2024-06-17 03:44:33 24.8 25.1 18.3 24.8 1.6 2.0 1015.2 0.0 0.0 0.0 0.0 75.0 67.0
2024-06-17 03:49:33 24.2 24.8 20.4 24.2 3.1 3.6 1015.3 0.0 0.0 0.0 0.0 101.0 79.0
2024-06-17 03:54:33 23.6 24.1 20.1 23.6 2.6 3.1 1015.3 0.0 0.0 0.0 0.0 107.0 81.0
2024-06-17 03:59:32 23.4 23.8 19.6 23.4 2.5 3.1 1015.3 0.0 0.0 0.0 0.0 106.0 79.0
2024-06-17 04:04:32 23.4 23.8 19.4 23.4 2.2 3.1 1015.5 0.0 0.0 0.0 0.0 119.0 78.0
2024-06-17 04:09:32 23.7 24.2 19.4 23.7 2.3 3.6 1015.2 0.0 0.0 0.0 0.0 99.0 77.0
2024-06-17 04:14:32 23.7 24.2 19.7 23.7 2.2 2.6 1015.4 0.0 0.0 0.0 0.0 100.0 78.0
2024-06-17 04:19:31 23.5 23.9 19.5 23.5 2.0 3.1 1015.4 0.0 0.0 0.0 0.0 117.0 78.0
2024-06-17 04:24:31 23.5 24.0 19.7 23.5 1.3 2.0 1015.4 0.0 0.0 0.0 0.0 110.0 79.0
2024-06-17 04:29:59 23.4 23.8 19.4 23.4 0.0 0.5 1015.3 0.0 0.0 0.0 0.0 77.0 78.0
2024-06-17 04:34:59 23.4 23.8 19.4 23.4 0.0 0.0 1015.5 0.0 0.0 0.0 0.0 95.0 78.0
2024-06-17 04:39:58 23.4 23.8 19.6 23.4 0.0 1.0 1015.3 0.0 0.0 0.0 0.0 100.0 79.0
2024-06-17 04:44:58 23.0 23.5 19.6 23.0 0.0 0.5 1015.5 0.0 0.0 0.0 0.0 61.0 81.0
2024-06-17 04:49:58 22.6 23.0 19.2 22.6 0.0 0.0 1015.4 0.0 0.0 0.0 0.0 67.0 81.0
2024-06-17 04:54:18 22.7 23.2 19.3 22.7 0.0 0.0 1015.5 0.0 0.0 0.0 0.0 136.0 81.0
2024-06-17 04:59:34 22.9 23.3 19.5 22.9 1.1 1.5 1015.4 0.0 0.0 0.0 0.0 112.0 81.0
2024-06-17 05:04:34 22.8 23.1 18.8 22.8 0.0 0.5 1015.7 0.0 0.0 0.0 0.0 42.0 78.0
2024-06-17 05:09:33 23.3 23.7 19.3 23.3 1.0 1.0 1015.6 0.0 0.0 0.0 0.0 132.0 78.0
2024-06-17 05:14:33 23.4 23.8 19.4 23.4 1.1 1.5 1015.7 0.0 0.0 0.0 0.0 120.0 78.0
2024-06-17 05:19:33 23.4 23.8 19.6 23.4 1.4 1.5 1015.7 0.0 0.0 0.0 0.0 117.0 79.0
2024-06-17 05:24:33 23.3 23.8 19.7 23.3 1.6 2.0 1015.9 0.0 0.0 0.0 0.0 111.0 80.0
2024-06-17 05:29:32 23.1 23.6 19.5 23.1 2.5 3.1 1015.7 0.0 0.0 0.0 0.0 95.0 80.0
2024-06-17 05:34:32 23.2 23.7 19.8 23.2 1.7 2.0 1015.7 0.0 0.0 0.0 0.0 94.0 81.0
2024-06-17 05:39:32 23.0 23.4 18.7 23.0 1.1 1.5 1015.8 0.0 0.0 0.0 0.0 24.0 77.0
2024-06-17 05:44:32 23.9 24.2 18.1 23.9 2.0 2.0 1015.8 0.0 0.0 0.0 0.0 65.0 70.0
2024-06-17 05:49:32 24.1 24.4 18.3 24.1 2.2 2.6 1016.1 0.0 0.0 0.0 0.0 59.0 70.0
2024-06-17 05:55:00 24.1 24.4 18.5 24.1 0.2 0.5 1015.9 0.0 0.0 0.0 0.0 73.0 71.0
2024-06-17 05:59:59 24.0 24.3 18.4 24.0 1.1 1.5 1015.9 0.0 0.0 0.0 0.0 96.0 71.0
2024-06-17 06:04:31 23.7 24.2 19.7 23.7 2.6 2.6 1015.9 0.0 0.0 0.0 0.0 112.0 78.0
2024-06-17 06:09:31 23.0 23.4 19.4 23.0 2.6 3.1 1016.0 0.0 0.0 0.0 0.0 118.0 80.0
2024-06-17 06:14:59 23.1 23.6 19.8 23.1 3.1 3.6 1016.1 0.0 0.0 0.0 0.0 120.0 82.0
2024-06-17 06:19:58 22.8 23.2 19.2 22.8 3.3 3.6 1016.1 0.0 0.0 0.0 0.0 118.0 80.0
2024-06-17 06:24:58 23.1 23.6 19.5 23.1 2.6 3.1 1016.3 0.0 0.0 0.0 0.0 90.0 80.0
2024-06-17 06:29:58 23.0 23.5 19.6 23.0 3.0 4.1 1016.3 0.0 0.0 1.7 0.0 94.0 81.0
2024-06-17 06:34:58 22.9 23.3 19.5 22.9 2.4 3.6 1016.4 0.0 0.0 3.8 0.0 112.0 81.0
2024-06-17 06:39:57 23.1 23.6 19.8 23.1 1.8 2.0 1016.5 0.0 0.0 6.5 0.0 60.0 82.0
2024-06-17 06:44:57 22.8 23.2 19.0 22.8 1.1 1.5 1016.4 0.0 0.0 9.5 0.0 35.0 79.0
2024-06-17 06:49:57 23.2 23.6 18.9 23.2 1.4 1.5 1016.6 0.0 0.0 13.8 0.0 108.0 77.0
2024-06-17 06:54:57 23.7 24.2 19.4 23.7 0.0 0.5 1016.5 0.0 0.0 17.3 0.0 31.0 77.0
2024-06-17 06:59:56 23.9 24.3 19.6 23.9 0.3 0.5 1016.5 0.0 0.0 21.2 0.0 72.0 77.0
2024-06-17 07:04:56 24.0 24.4 19.5 24.0 0.0 0.5 1016.7 0.0 0.0 25.9 0.0 55.0 76.0
2024-06-17 07:09:56 24.6 25.1 19.7 24.6 0.0 0.0 1016.7 0.0 0.0 28.6 0.0 68.0 74.0
2024-06-17 07:14:56 25.5 26.0 19.9 25.5 0.0 0.0 1016.5 0.0 0.0 32.1 0.0 60.0 71.0
2024-06-17 07:19:56 24.7 25.2 19.8 24.7 0.4 1.0 1017.0 0.0 0.0 36.3 0.0 73.0 74.0
2024-06-17 07:24:56 24.6 25.0 19.5 24.6 0.2 0.5 1016.8 0.0 0.0 39.9 0.0 80.0 73.0
2024-06-17 07:29:55 24.9 25.3 19.5 24.9 0.6 1.0 1017.1 0.0 0.0 44.2 0.0 76.0 72.0
2024-06-17 07:34:55 24.6 25.1 19.9 24.6 1.0 1.5 1017.0 0.0 0.0 48.1 0.0 100.0 75.0
2024-06-17 07:39:55 24.0 24.4 19.3 24.0 1.0 1.0 1016.9 0.0 0.0 54.2 0.0 93.0 75.0
2024-06-17 07:44:55 24.0 24.4 19.1 24.0 1.3 2.0 1017.1 0.0 0.0 83.7 0.0 63.0 74.0
2024-06-17 07:49:54 24.2 24.6 19.3 24.2 1.8 2.0 1017.1 0.0 0.0 89.3 0.0 45.0 74.0
2024-06-17 07:54:54 24.1 24.5 19.0 24.1 1.3 2.0 1017.1 0.0 0.0 98.0 0.0 51.0 73.0
2024-06-17 07:59:54 24.3 24.7 19.2 24.3 0.3 1.0 1017.2 0.0 0.0 107.9 1.0 51.0 73.0
2024-06-17 08:04:58 24.9 25.3 19.5 24.9 1.0 1.5 1017.2 0.0 0.0 116.6 1.0 75.0 72.0
2024-06-17 08:09:57 24.9 25.3 19.7 24.9 0.4 1.5 1017.2 0.0 0.0 134.0 1.0 47.0 73.0
2024-06-17 08:14:57 24.8 25.2 19.4 24.8 1.3 2.0 1017.4 0.0 0.0 150.5 1.0 21.0 72.0
2024-06-17 08:19:57 24.9 25.3 19.1 24.9 2.2 2.6 1017.1 0.0 0.0 160.9 1.0 23.0 70.0
2024-06-17 08:24:57 25.2 25.6 19.1 25.2 2.1 4.1 1017.1 0.0 0.0 163.1 1.0 20.0 69.0
2024-06-17 08:29:57 25.4 25.7 18.8 25.4 2.0 4.1 1017.3 0.0 0.0 150.0 1.0 16.0 67.0
2024-06-17 08:34:57 25.7 26.1 18.9 25.7 1.7 3.6 1017.0 0.0 0.0 161.4 1.0 35.0 66.0
2024-06-17 08:39:56 25.9 26.2 18.3 25.9 2.5 3.6 1017.0 0.0 0.0 184.7 1.0 26.0 63.0
2024-06-17 08:44:56 26.2 26.5 18.4 26.2 1.5 3.6 1017.3 0.0 0.0 213.0 2.0 359.0 62.0
2024-06-17 08:49:56 26.5 27.4 17.6 26.5 1.5 4.1 1017.2 0.0 0.0 234.6 2.0 14.0 58.0
2024-06-17 08:54:56 26.9 27.7 17.7 26.9 2.6 3.1 1017.0 0.0 0.0 243.7 2.0 327.0 57.0
2024-06-17 08:59:55 27.0 27.8 17.5 27.0 2.0 2.6 1017.3 0.0 0.0 258.5 2.0 347.0 56.0
2024-06-17 09:04:55 27.3 28.0 17.2 27.3 3.0 3.6 1017.3 0.0 0.0 273.7 2.0 342.0 54.0
2024-06-17 09:09:55 27.4 28.0 17.0 27.4 3.4 4.1 1017.3 0.0 0.0 298.9 2.0 327.0 53.0
2024-06-17 09:14:55 27.5 28.1 16.8 27.5 3.3 4.1 1017.4 0.0 0.0 307.1 2.0 299.0 52.0
2024-06-17 09:19:55 27.5 28.1 16.8 27.5 1.7 3.6 1017.6 0.0 0.0 311.5 3.0 328.0 52.0
2024-06-17 09:24:55 27.6 28.2 16.9 27.6 2.9 4.1 1017.4 0.0 0.0 318.0 3.0 305.0 52.0
2024-06-17 09:29:54 27.8 28.4 17.1 27.8 2.2 3.1 1017.5 0.0 0.0 314.4 3.0 345.0 52.0
2024-06-17 09:34:54 27.8 28.5 17.4 27.8 0.0 1.5 1017.3 0.0 0.0 358.7 3.0 20.0 53.0
2024-06-17 09:39:54 27.9 28.3 16.5 27.9 1.3 3.6 1017.3 0.0 0.0 382.5 3.0 15.0 50.0
2024-06-17 09:44:54 28.0 28.5 17.0 28.0 2.2 4.6 1017.4 0.0 0.0 382.2 3.0 354.0 51.0
2024-06-17 09:49:53 28.0 28.6 17.3 28.0 2.6 4.1 1017.2 0.0 0.0 408.6 3.0 334.0 52.0
2024-06-17 09:54:53 28.0 28.4 16.6 28.0 2.6 4.6 1017.4 0.0 0.0 432.9 4.0 6.0 50.0
2024-06-17 09:59:53 28.0 28.5 17.0 28.0 2.6 4.6 1017.4 0.0 0.0 453.7 4.0 343.0 51.0
2024-06-17 10:04:53 28.0 28.4 16.6 28.0 2.9 5.1 1017.3 0.0 0.0 447.6 4.0 337.0 50.0
2024-06-17 10:09:54 28.1 28.7 17.0 28.1 3.0 6.1 1017.5 0.0 0.0 430.7 4.0 333.0 51.0
2024-06-17 10:14:54 28.2 28.7 16.8 28.2 1.9 4.6 1017.4 0.0 0.0 451.1 4.0 320.0 50.0
2024-06-17 10:19:52 28.3 28.7 16.6 28.3 3.3 4.6 1017.2 0.0 0.0 463.3 4.0 323.0 49.0
2024-06-17 10:24:52 28.3 28.8 16.9 28.3 3.6 4.6 1017.2 0.0 0.0 484.1 4.0 286.0 50.0
2024-06-17 10:29:52 28.5 28.9 16.8 28.5 3.3 5.1 1017.2 0.0 0.0 483.2 4.0 347.0 49.0
2024-06-17 10:34:52 28.6 29.0 16.5 28.6 2.9 7.1 1017.2 0.0 0.0 471.5 4.0 355.0 48.0
2024-06-17 10:39:51 28.6 29.1 16.9 28.6 2.2 5.6 1017.2 0.0 0.0 488.0 4.0 323.0 49.0
2024-06-17 10:44:51 28.8 29.3 17.1 28.8 3.0 5.1 1017.1 0.0 0.0 488.9 4.0 309.0 49.0
2024-06-17 10:49:51 28.8 29.2 16.7 28.8 3.2 6.6 1016.9 0.0 0.0 513.6 5.0 315.0 48.0
2024-06-17 10:54:51 29.0 29.5 17.3 29.0 2.9 4.1 1017.0 0.0 0.0 514.4 5.0 9.0 49.0
2024-06-17 10:59:50 28.9 29.6 17.8 28.9 2.7 5.6 1016.9 0.0 0.0 495.3 4.0 17.0 51.0
2024-06-17 11:04:50 29.2 29.7 17.1 29.2 5.9 7.1 1017.1 0.0 0.0 461.9 4.0 19.0 48.0
2024-06-17 11:09:50 29.0 29.5 17.3 29.0 2.6 5.6 1016.9 0.0 0.0 496.7 4.0 6.0 49.0
2024-06-17 11:14:50 29.1 29.4 16.7 29.1 2.4 7.7 1017.0 0.0 0.0 526.2 5.0 355.0 47.0
2024-06-17 11:19:50 29.2 29.6 16.7 29.2 3.4 3.6 1016.9 0.0 0.0 530.9 5.0 355.0 47.0
2024-06-17 11:24:50 29.2 29.7 17.1 29.2 2.0 4.6 1016.6 0.0 0.0 525.3 5.0 56.0 48.0
2024-06-17 11:29:49 29.3 29.8 17.2 29.3 2.8 7.7 1016.6 0.0 0.0 506.6 4.0 26.0 48.0
2024-06-17 11:34:49 29.3 29.7 16.8 29.3 5.0 7.1 1016.5 0.0 0.0 494.5 4.0 344.0 47.0
2024-06-17 11:39:49 29.4 29.8 16.9 29.4 1.8 3.6 1016.5 0.0 0.0 505.7 4.0 5.0 47.0
2024-06-17 11:44:49 29.4 29.8 16.9 29.4 3.1 7.7 1016.5 0.0 0.0 513.2 5.0 5.0 47.0
2024-06-17 11:49:48 29.5 30.1 17.4 29.5 3.0 4.1 1016.4 0.0 0.0 503.2 4.0 287.0 48.0
2024-06-17 11:54:48 29.5 29.8 16.7 29.5 4.3 6.1 1016.3 0.0 0.0 486.3 4.0 347.0 46.0
2024-06-17 11:59:48 29.6 29.9 16.8 29.6 3.2 4.6 1016.3 0.0 0.0 480.2 4.0 334.0 46.0
2024-06-17 12:04:48 29.7 30.1 16.9 29.7 3.4 5.6 1016.0 0.0 0.0 484.9 4.0 14.0 46.0
2024-06-17 12:09:47 29.8 30.2 17.0 29.8 3.3 6.1 1016.1 0.0 0.0 480.2 4.0 19.0 46.0
2024-06-17 12:14:47 29.8 31.5 19.8 29.8 1.7 2.6 1016.0 0.0 0.0 480.2 4.0 89.0 55.0
2024-06-17 12:19:47 27.4 28.9 19.7 27.4 0.8 2.6 1015.7 0.0 0.0 474.9 4.0 74.0 63.0
2024-06-17 12:24:47 26.7 27.9 19.1 26.7 3.1 4.1 1015.7 0.0 0.0 445.1 4.0 26.0 63.0
2024-06-17 12:29:47 28.1 30.0 20.4 28.1 3.1 4.6 1015.6 0.0 0.0 455.0 4.0 51.0 63.0
2024-06-17 12:34:47 28.5 30.6 20.8 28.5 1.8 2.6 1015.7 0.0 0.0 507.5 4.0 97.0 63.0
2024-06-17 12:39:46 27.9 28.9 18.3 27.9 1.6 4.1 1015.5 0.0 0.0 507.1 4.0 32.0 56.0
2024-06-17 12:44:46 29.1 30.8 19.7 29.1 2.4 3.1 1015.5 0.0 0.0 516.6 5.0 83.0 57.0
2024-06-17 12:49:46 28.1 29.6 19.6 28.1 1.4 3.1 1015.6 0.0 0.0 508.4 4.0 74.0 60.0
2024-06-17 12:54:46 27.5 29.2 20.4 27.5 3.6 5.1 1015.2 0.0 0.0 497.5 4.0 83.0 65.0
2024-06-17 12:59:45 27.8 29.2 19.6 27.8 2.3 3.1 1014.9 0.0 0.0 495.3 4.0 91.0 61.0
2024-06-17 13:04:45 27.7 29.6 20.6 27.7 2.5 4.1 1015.0 0.0 0.0 483.2 4.0 73.0 65.0
2024-06-17 13:09:45 27.4 28.7 19.2 27.4 2.3 3.6 1015.1 0.0 0.0 472.0 4.0 78.0 61.0
2024-06-17 13:14:45 29.4 30.3 18.2 29.4 0.1 2.6 1014.9 0.0 0.0 469.3 4.0 75.0 51.0
2024-06-17 13:19:44 29.7 32.5 21.4 29.7 3.3 4.1 1014.8 0.0 0.0 448.1 4.0 69.0 61.0
2024-06-17 13:24:44 29.4 31.1 19.7 29.4 1.1 3.1 1014.9 0.0 0.0 449.3 4.0 74.0 56.0
2024-06-17 13:29:44 28.8 29.5 17.7 28.8 1.1 3.1 1014.7 0.0 0.0 456.3 4.0 58.0 51.0
2024-06-17 13:34:44 30.3 30.5 16.7 30.3 1.0 2.0 1014.7 0.0 0.0 447.3 4.0 22.0 44.0
2024-06-17 13:39:44 28.7 29.5 17.9 28.7 2.0 2.6 1014.7 0.0 0.0 403.3 3.0 286.0 52.0
2024-06-17 13:44:44 30.6 31.5 18.0 30.6 1.0 1.5 1014.9 0.0 0.0 384.3 3.0 46.0 47.0
2024-06-17 13:49:59 30.4 32.2 19.8 30.4 1.1 3.1 1014.5 0.0 0.0 392.6 3.0 94.0 53.0
2024-06-17 13:54:43 28.1 29.0 17.9 28.1 0.8 2.6 1014.5 0.0 0.0 393.4 3.0 144.0 54.0
2024-06-17 13:59:43 27.8 29.7 20.6 27.8 2.0 2.6 1014.6 0.0 0.0 395.6 3.0 100.0 65.0
2024-06-17 14:04:59 27.8 28.9 18.8 27.8 1.1 2.0 1014.6 0.0 0.0 386.1 3.0 78.0 58.0
2024-06-17 14:09:58 29.2 31.9 21.4 29.2 1.6 2.0 1014.4 0.0 0.0 365.7 3.0 109.0 63.0
2024-06-17 14:14:42 28.4 30.3 20.4 28.4 1.9 2.0 1014.4 0.0 0.0 368.7 3.0 96.0 62.0
2024-06-17 14:19:58 28.0 29.6 19.8 28.0 1.9 2.6 1014.5 0.0 0.0 343.5 3.0 116.0 61.0
2024-06-17 14:24:58 28.0 29.9 20.6 28.0 1.7 2.6 1014.3 0.0 0.0 333.1 3.0 113.0 64.0
2024-06-17 14:29:57 28.2 29.7 19.5 28.2 0.5 2.0 1014.3 0.0 0.0 322.2 3.0 69.0 59.0
2024-06-17 14:34:57 27.9 29.7 20.5 27.9 2.8 4.1 1014.5 0.0 0.0 320.2 3.0 101.0 64.0
2024-06-17 14:39:57 27.2 29.0 20.5 27.2 2.6 3.1 1014.2 0.0 0.0 301.9 2.0 112.0 67.0
2024-06-17 14:44:57 27.4 29.2 20.7 27.4 2.2 2.6 1014.1 0.0 0.0 292.8 2.0 106.0 67.0
2024-06-17 14:49:57 27.3 29.1 20.9 27.3 2.8 3.1 1014.5 0.0 0.0 270.6 2.0 108.0 68.0
2024-06-17 14:54:57 27.4 29.1 20.5 27.4 2.6 3.1 1014.5 0.0 0.0 261.1 2.0 102.0 66.0
2024-06-17 14:59:56 27.8 29.3 19.9 27.8 2.4 3.1 1014.1 0.0 0.0 252.4 2.0 110.0 62.0
2024-06-17 15:04:56 27.9 29.2 19.2 27.9 2.2 2.6 1014.4 0.0 0.0 240.3 2.0 118.0 59.0
2024-06-17 15:09:56 28.0 29.4 19.5 28.0 2.2 3.1 1014.3 0.0 0.0 204.7 2.0 106.0 60.0
2024-06-17 15:14:56 28.2 29.8 19.7 28.2 2.0 2.6 1014.3 0.0 0.0 204.3 2.0 112.0 60.0
2024-06-17 15:19:55 28.2 29.7 19.5 28.2 2.3 2.6 1014.3 0.0 0.0 199.0 1.0 105.0 59.0
2024-06-17 15:24:55 28.3 29.5 19.0 28.3 2.1 2.6 1014.0 0.0 0.0 202.1 1.0 100.0 57.0
2024-06-17 15:29:55 28.1 29.5 19.4 28.1 1.9 2.6 1014.3 0.0 0.0 184.7 1.0 105.0 59.0
2024-06-17 15:34:55 28.2 29.5 19.2 28.2 1.9 2.0 1014.2 0.0 0.0 152.7 1.0 105.0 58.0
2024-06-17 15:39:55 28.2 29.5 19.2 28.2 1.8 2.0 1014.2 0.0 0.0 144.9 1.0 104.0 58.0
2024-06-17 15:44:55 28.4 29.4 18.5 28.4 1.5 1.5 1014.2 0.0 0.0 129.7 1.0 90.0 55.0
2024-06-17 15:49:38 28.5 29.6 18.6 28.5 1.5 2.0 1014.0 0.0 0.0 120.5 1.0 105.0 55.0
2024-06-17 15:54:57 28.6 29.6 18.4 28.6 1.5 2.0 1014.3 0.0 0.0 103.6 1.0 102.0 54.0
2024-06-17 15:59:57 28.6 29.6 18.4 28.6 1.4 2.0 1014.2 0.0 0.0 93.6 0.0 106.0 54.0
2024-06-17 16:04:13 28.7 29.7 18.2 28.7 1.5 2.0 1014.5 0.0 0.0 81.5 0.0 112.0 53.0
2024-06-17 16:09:56 28.8 29.9 18.6 28.8 1.2 2.0 1014.6 0.0 0.0 68.5 0.0 111.0 54.0
2024-06-17 16:14:56 28.8 29.9 18.6 28.8 1.1 2.0 1014.7 0.0 0.0 59.0 0.0 100.0 54.0
2024-06-17 16:19:56 28.7 29.8 18.5 28.7 0.8 1.5 1014.8 0.0 0.0 50.3 0.0 120.0 54.0
2024-06-17 16:24:56 28.9 29.6 17.8 28.9 1.6 2.0 1014.9 0.0 0.0 38.5 0.0 122.0 51.0
2024-06-17 16:29:55 28.9 29.8 18.1 28.9 1.3 1.5 1014.7 0.0 0.0 34.6 0.0 116.0 52.0
2024-06-17 16:34:55 29.0 29.9 18.2 29.0 1.0 1.5 1014.6 0.0 0.0 30.7 0.0 113.0 52.0
2024-06-17 16:39:55 29.0 29.9 18.2 29.0 0.2 0.5 1014.6 0.0 0.0 25.9 0.0 97.0 52.0
2024-06-17 16:44:55 28.2 29.8 19.7 28.2 0.0 0.0 1014.5 0.0 0.0 22.5 0.0 37.0 60.0
2024-06-17 16:49:55 27.8 28.8 18.5 27.8 1.1 2.0 1014.6 0.0 0.0 16.9 0.0 124.0 57.0
2024-06-17 16:54:55 28.1 29.1 18.2 28.1 0.6 1.5 1014.6 0.0 0.0 13.8 0.0 105.0 55.0
2024-06-17 16:59:54 28.0 29.0 18.4 28.0 0.2 1.0 1014.4 0.0 0.0 10.4 0.0 48.0 56.0
2024-06-17 17:04:54 27.7 28.9 18.7 27.7 0.0 1.0 1014.8 0.0 0.0 7.7 0.0 54.0 58.0
2024-06-17 17:09:54 27.5 28.6 18.8 27.5 0.0 0.0 1014.6 0.0 0.0 4.3 0.0 68.0 59.0
2024-06-17 17:14:54 27.4 28.6 19.0 27.4 0.1 1.0 1014.7 0.0 0.0 1.7 0.0 59.0 60.0
2024-06-17 17:19:53 27.3 28.5 19.2 27.3 0.6 1.0 1014.9 0.0 0.0 0.0 0.0 117.0 61.0
2024-06-17 17:24:53 27.2 28.4 19.1 27.2 0.5 1.0 1014.8 0.0 0.0 0.0 0.0 226.0 61.0
2024-06-17 17:29:53 27.2 28.5 19.3 27.2 0.3 1.0 1014.9 0.0 0.0 0.0 0.0 204.0 62.0
2024-06-17 17:34:53 27.1 28.4 19.2 27.1 0.9 1.0 1014.8 0.0 0.0 0.0 0.0 227.0 62.0
2024-06-17 17:39:52 27.2 28.4 19.1 27.2 0.0 0.5 1014.8 0.0 0.0 0.0 0.0 301.0 61.0
2024-06-17 17:44:52 27.0 28.0 18.3 27.0 0.0 0.0 1014.8 0.0 0.0 0.0 0.0 274.0 59.0
2024-06-17 17:49:52 27.1 27.9 17.6 27.1 1.5 2.0 1014.9 0.0 0.0 0.0 0.0 262.0 56.0
2024-06-17 17:54:52 27.0 27.8 17.5 27.0 1.2 2.0 1015.1 0.0 0.0 0.0 0.0 286.0 56.0
2024-06-17 17:59:52 27.0 27.9 17.8 27.0 1.0 2.0 1015.1 0.0 0.0 0.0 0.0 243.0 57.0
2024-06-17 18:04:52 26.9 27.7 17.7 26.9 1.6 2.0 1014.9 0.0 0.0 0.0 0.0 291.0 57.0
2024-06-17 18:09:51 26.8 27.6 17.6 26.8 1.6 2.0 1015.0 0.0 0.0 0.0 0.0 246.0 57.0
2024-06-17 18:14:51 26.8 27.7 17.9 26.8 1.5 2.6 1015.1 0.0 0.0 0.0 0.0 262.0 58.0
2024-06-17 18:19:51 26.7 27.6 17.8 26.7 0.3 1.5 1015.2 0.0 0.0 0.0 0.0 263.0 58.0
2024-06-17 18:24:51 26.7 27.6 17.5 26.7 2.2 2.6 1015.0 0.0 0.0 0.0 0.0 291.0 57.0
2024-06-17 18:29:50 26.8 27.6 17.3 26.8 1.0 1.5 1015.0 0.0 0.0 0.0 0.0 269.0 56.0
2024-06-17 18:34:54 26.9 27.7 17.4 26.9 1.1 1.5 1015.0 0.0 0.0 0.0 0.0 255.0 56.0
2024-06-17 18:39:54 26.8 27.6 17.3 26.8 1.5 2.0 1015.0 0.0 0.0 0.0 0.0 270.0 56.0
2024-06-17 18:44:54 26.8 27.6 17.6 26.8 1.5 2.6 1015.1 0.0 0.0 0.0 0.0 270.0 57.0
2024-06-17 18:49:54 26.7 27.5 17.2 26.7 1.5 2.0 1015.2 0.0 0.0 0.0 0.0 294.0 56.0
2024-06-17 18:54:54 26.7 27.5 17.2 26.7 1.5 2.0 1015.0 0.0 0.0 0.0 0.0 296.0 56.0
2024-06-17 18:59:53 26.7 27.5 17.2 26.7 0.4 1.0 1015.1 0.0 0.0 0.0 0.0 281.0 56.0
2024-06-17 19:04:53 26.6 27.4 17.4 26.6 0.0 0.5 1015.3 0.0 0.0 0.0 0.0 320.0 57.0
2024-06-17 19:09:53 26.6 27.4 17.1 26.6 0.0 0.0 1015.5 0.0 0.0 0.0 0.0 240.0 56.0
2024-06-17 19:14:53 26.6 27.4 17.1 26.6 0.5 1.0 1015.3 0.0 0.0 0.0 0.0 269.0 56.0
2024-06-17 19:19:52 26.6 27.4 17.1 26.6 0.0 0.0 1015.4 0.0 0.0 0.0 0.0 303.0 56.0
2024-06-17 19:24:52 26.4 26.5 16.9 26.4 0.1 0.5 1015.4 0.0 0.0 0.0 0.0 287.0 56.0
2024-06-17 19:29:52 26.5 27.3 17.0 26.5 0.0 0.5 1015.4 0.0 0.0 0.0 0.0 250.0 56.0
2024-06-17 19:34:52 26.4 26.5 16.9 26.4 0.4 0.5 1015.6 0.0 0.0 0.0 0.0 292.0 56.0
2024-06-17 19:39:51 26.4 26.6 17.2 26.4 0.0 1.0 1015.5 0.0 0.0 0.0 0.0 270.0 57.0
2024-06-17 19:44:51 26.4 26.5 16.7 26.4 0.8 1.5 1015.6 0.0 0.0 0.0 0.0 282.0 55.0
2024-06-17 19:49:51 26.3 26.4 17.1 26.3 0.0 0.0 1015.7 0.0 0.0 0.0 0.0 297.0 57.0
2024-06-17 19:54:51 26.1 26.2 16.7 26.1 1.1 1.5 1015.6 0.0 0.0 0.0 0.0 343.0 56.0
2024-06-17 19:59:50 25.8 25.9 16.9 25.8 1.0 1.0 1015.7 0.0 0.0 0.0 0.0 357.0 58.0
2024-06-17 20:04:50 25.4 25.4 16.0 25.4 1.3 1.5 1015.7 0.0 0.0 0.0 0.0 7.0 56.0
2024-06-17 20:09:50 25.8 25.9 16.9 25.8 0.5 1.0 1015.6 0.0 0.0 0.0 0.0 25.0 58.0
2024-06-17 20:14:50 25.2 25.3 16.1 25.2 0.0 0.0 1015.8 0.0 0.0 0.0 0.0 34.0 57.0
2024-06-17 20:19:50 25.3 25.5 18.0 25.3 1.0 1.5 1015.7 0.0 0.0 0.0 0.0 104.0 64.0
2024-06-17 20:24:50 25.2 25.4 17.4 25.2 0.0 1.0 1015.8 0.0 0.0 0.0 0.0 126.0 62.0
2024-06-17 20:29:49 25.2 25.4 17.7 25.2 0.0 0.0 1015.9 0.0 0.0 0.0 0.0 95.0 63.0
2024-06-17 20:34:49 25.2 25.5 18.4 25.2 0.0 0.0 1015.7 0.0 0.0 0.0 0.0 145.0 66.0
2024-06-17 20:39:49 25.0 25.3 18.0 25.0 0.0 0.0 1015.6 0.0 0.0 0.0 0.0 62.0 65.0
2024-06-17 20:44:49 24.8 25.0 17.8 24.8 0.0 0.0 1015.7 0.0 0.0 0.0 0.0 57.0 65.0
2024-06-17 20:49:48 24.9 25.2 18.4 24.9 0.0 0.0 1015.6 0.0 0.0 0.0 0.0 43.0 67.0
2024-06-17 20:54:48 24.6 24.9 18.5 24.6 0.0 0.0 1015.7 0.0 0.0 0.0 0.0 6.0 69.0
2024-06-17 20:59:48 24.6 24.9 18.1 24.6 0.0 0.5 1015.7 0.0 0.0 0.0 0.0 10.0 67.0
2024-06-17 21:04:48 24.6 24.8 17.1 24.6 0.7 1.0 1015.9 0.0 0.0 0.0 0.0 23.0 63.0
2024-06-17 21:09:48 24.6 24.7 16.8 24.6 0.1 1.0 1015.8 0.0 0.0 0.0 0.0 28.0 62.0
2024-06-17 21:14:48 24.8 25.0 17.8 24.8 0.5 1.0 1015.8 0.0 0.0 0.0 0.0 80.0 65.0
2024-06-17 21:19:51 24.9 25.3 19.1 24.9 1.0 1.0 1015.8 0.0 0.0 0.0 0.0 118.0 70.0
2024-06-17 21:24:51 24.4 24.5 16.7 24.4 1.1 1.5 1015.9 0.0 0.0 0.0 0.0 126.0 62.0
2024-06-17 21:29:51 25.2 25.5 18.2 25.2 1.0 1.5 1015.7 0.0 0.0 0.0 0.0 123.0 65.0
2024-06-17 21:34:51 24.8 25.1 19.0 24.8 1.0 1.5 1015.8 0.0 0.0 0.0 0.0 112.0 70.0
2024-06-17 21:39:50 24.6 25.0 19.0 24.6 0.5 1.0 1015.7 0.0 0.0 0.0 0.0 93.0 71.0
2024-06-17 21:44:50 24.4 24.7 18.8 24.4 0.8 1.0 1015.7 0.0 0.0 0.0 0.0 139.0 71.0
2024-06-17 21:49:50 24.3 24.4 16.8 24.3 0.6 2.0 1015.8 0.0 0.0 0.0 0.0 15.0 63.0
2024-06-17 21:54:50 25.7 25.9 17.4 25.7 1.0 1.5 1015.7 0.0 0.0 0.0 0.0 345.0 60.0
2024-06-17 21:59:49 25.9 26.0 17.0 25.9 1.0 1.5 1015.8 0.0 0.0 0.0 0.0 20.0 58.0
2024-06-17 22:04:49 25.8 26.0 17.2 25.8 0.4 1.0 1015.9 0.0 0.0 0.0 0.0 15.0 59.0
2024-06-17 22:09:49 25.6 25.7 16.7 25.6 0.9 1.0 1015.7 0.0 0.0 0.0 0.0 322.0 58.0
2024-06-17 22:14:49 25.6 25.8 17.3 25.6 1.0 1.5 1015.7 0.0 0.0 0.0 0.0 332.0 60.0
2024-06-17 22:19:33 25.8 25.9 16.9 25.8 1.3 1.5 1015.6 0.0 0.0 0.0 0.0 0.0 58.0
2024-06-17 22:24:49 25.7 25.9 17.1 25.7 1.4 2.0 1015.6 0.0 0.0 0.0 0.0 6.0 59.0
2024-06-17 22:29:48 25.5 25.7 17.7 25.5 1.1 1.5 1015.7 0.0 0.0 0.0 0.0 3.0 62.0
2024-06-17 22:34:52 25.5 25.7 17.2 25.5 1.5 1.5 1015.7 0.0 0.0 0.0 0.0 351.0 60.0
2024-06-17 22:39:52 25.4 25.6 17.1 25.4 1.1 1.5 1015.7 0.0 0.0 0.0 0.0 12.0 60.0
2024-06-17 22:44:52 25.3 25.5 17.8 25.3 1.5 1.5 1015.7 0.0 0.0 0.0 0.0 13.0 63.0
2024-06-17 22:49:51 25.2 25.4 17.7 25.2 1.7 2.0 1015.6 0.0 0.0 0.0 0.0 6.0 63.0
2024-06-17 22:54:51 25.2 25.4 17.2 25.2 1.9 2.0 1015.5 0.0 0.0 0.0 0.0 21.0 61.0
2024-06-17 22:59:51 25.5 25.6 16.9 25.5 2.0 2.0 1015.4 0.0 0.0 0.0 0.0 12.0 59.0
2024-06-17 23:04:51 25.6 25.8 17.0 25.6 1.9 2.0 1015.4 0.0 0.0 0.0 0.0 18.0 59.0
2024-06-17 23:09:50 25.5 25.7 17.5 25.5 1.0 1.5 1015.3 0.0 0.0 0.0 0.0 13.0 61.0
2024-06-17 23:14:50 25.2 25.4 17.2 25.2 0.5 1.0 1015.3 0.0 0.0 0.0 0.0 58.0 61.0
2024-06-17 23:19:50 25.2 25.4 17.4 25.2 0.6 2.0 1015.3 0.0 0.0 0.0 0.0 51.0 62.0
2024-06-17 23:24:50 25.4 25.6 17.1 25.4 1.4 2.0 1015.2 0.0 0.0 0.0 0.0 78.0 60.0
2024-06-17 23:29:50 25.6 25.8 17.0 25.6 1.9 2.0 1015.3 0.0 0.0 0.0 0.0 78.0 59.0
2024-06-17 23:34:54 25.4 25.5 16.8 25.4 2.2 2.6 1015.4 0.0 0.0 0.0 0.0 63.0 59.0
2024-06-17 23:39:53 25.5 25.7 17.2 25.5 1.7 2.6 1015.2 0.0 0.0 0.0 0.0 60.0 60.0
2024-06-17 23:44:53 25.5 25.7 17.2 25.5 2.4 3.1 1015.3 0.0 0.0 0.0 0.0 55.0 60.0
2024-06-17 23:49:53 25.5 25.6 16.9 25.5 2.2 2.6 1015.2 0.0 0.0 0.0 0.0 53.0 59.0
2024-06-17 23:54:53 25.4 25.5 16.8 25.4 1.5 2.6 1015.2 0.0 0.0 0.0 0.0 43.0 59.0
2024-06-17 23:59:52 25.4 25.6 17.1 25.4 2.0 2.6 1015.1 0.0 0.0 0.0 0.0 45.0 60.0
2024-06-18 00:04:52 25.3 25.4 17.0 25.3 1.5 2.0 1015.0 0.0 0.0 0.0 0.0 63.0 60.0
2024-06-18 00:09:52 25.3 25.5 17.3 25.3 1.3 1.5 1014.9 0.0 0.0 0.0 0.0 59.0 61.0
2024-06-18 00:14:52 25.2 25.4 16.9 25.2 0.4 1.0 1015.0 0.0 0.0 0.0 0.0 37.0 60.0